<?xml version="1.0" encoding="UTF-8" standalone="no" ?>
<gpx xmlns="http://www.topografix.com/GPX/1/1" xmlns:xsi="http://www.w3.org/2001/XMLSchema-instance" xsi:schemaLocation="http://www.topografix.com/GPX/1/1 http://www.topografix.com/GPX/1/1/gpx.xsd" version="1.1" creator="VisuGPX - https://www.visugpx.com">
  <metadata>
    <name>Les Champis-Collet-BelleHutte vtt</name>
  </metadata>
  <wpt lat="48.03403" lon="6.98754">
    <ele>1173.3</ele>
  </wpt>
  <wpt lat="48.03378" lon="6.99203">
    <ele>1181</ele>
  </wpt>
  <wpt lat="48.03431" lon="6.99889">
    <ele>1230.9</ele>
  </wpt>
  <wpt lat="48.03589" lon="7.00781">
    <ele>1244.3</ele>
  </wpt>
  <wpt lat="48.04099" lon="7.0055">
    <ele>1238.3</ele>
  </wpt>
  <wpt lat="48.04243" lon="7.00331">
    <ele>1209.3</ele>
  </wpt>
  <wpt lat="48.04309" lon="7.00207">
    <ele>1179.6</ele>
  </wpt>
  <wpt lat="48.04306" lon="7.00035">
    <ele>1150.7</ele>
  </wpt>
  <wpt lat="48.04125" lon="6.99911">
    <ele>1118.1</ele>
  </wpt>
  <wpt lat="48.04088" lon="6.99722">
    <ele>1114.4</ele>
  </wpt>
  <wpt lat="48.04111" lon="6.99306">
    <ele>1131.8</ele>
  </wpt>
  <wpt lat="48.03967" lon="6.98306">
    <ele>1088.4</ele>
  </wpt>
  <wpt lat="48.0436" lon="6.97864">
    <ele>1052.5</ele>
  </wpt>
  <wpt lat="48.04492" lon="7.00632">
    <ele>1228.9</ele>
  </wpt>
  <wpt lat="48.04644" lon="6.97825">
    <ele>1016.2</ele>
  </wpt>
  <wpt lat="48.04214" lon="6.97666">
    <ele>988.9</ele>
  </wpt>
  <wpt lat="48.03962" lon="6.97499">
    <ele>939.8</ele>
  </wpt>
  <wpt lat="48.04073" lon="6.97362">
    <ele>920.2</ele>
  </wpt>
  <wpt lat="48.03984" lon="6.97289">
    <ele>925.7</ele>
  </wpt>
  <wpt lat="48.04062" lon="6.97254">
    <ele>937.5</ele>
  </wpt>
  <wpt lat="48.03984" lon="6.96992">
    <ele>993.9</ele>
  </wpt>
  <wpt lat="48.04094" lon="6.96718">
    <ele>1026.6</ele>
  </wpt>
  <wpt lat="48.04105" lon="6.9643">
    <ele>1056.4</ele>
  </wpt>
  <wpt lat="48.04114" lon="6.96353">
    <ele>1074.5</ele>
  </wpt>
  <wpt lat="48.03982" lon="6.961">
    <ele>1109.2</ele>
  </wpt>
  <wpt lat="48.03861" lon="6.95932">
    <ele>1128.1</ele>
  </wpt>
  <wpt lat="48.03947" lon="6.95748">
    <ele>1159.2</ele>
  </wpt>
  <wpt lat="48.03893" lon="6.95576">
    <ele>1155.2</ele>
  </wpt>
  <wpt lat="48.04022" lon="6.94928">
    <ele>1137</ele>
  </wpt>
  <wpt lat="48.03904" lon="6.94855">
    <ele>1138.3</ele>
  </wpt>
  <wpt lat="48.03657" lon="6.94495">
    <ele>1165.4</ele>
  </wpt>
  <wpt lat="48.03284" lon="6.94203">
    <ele>1151.6</ele>
  </wpt>
  <wpt lat="48.03132" lon="6.94508">
    <ele>1171.6</ele>
  </wpt>
  <wpt lat="48.02621" lon="6.94031">
    <ele>1152.6</ele>
  </wpt>
  <wpt lat="48.02133" lon="6.93409">
    <ele>1137.5</ele>
  </wpt>
  <wpt lat="48.01723" lon="6.93164">
    <ele>1114.9</ele>
  </wpt>
  <wpt lat="48.01637" lon="6.9331">
    <ele>1077.4</ele>
  </wpt>
  <wpt lat="48.01993" lon="6.93636">
    <ele>1035.8</ele>
  </wpt>
  <wpt lat="48.02067" lon="6.9422">
    <ele>983.7</ele>
  </wpt>
  <wpt lat="48.01798" lon="6.938">
    <ele>924.9</ele>
  </wpt>
  <wpt lat="48.01235" lon="6.93804">
    <ele>854.4</ele>
  </wpt>
  <wpt lat="48.01011" lon="6.93654">
    <ele>830</ele>
  </wpt>
  <wpt lat="48.01338" lon="6.9413">
    <ele>767.1</ele>
  </wpt>
  <wpt lat="48.01424" lon="6.94323">
    <ele>762.3</ele>
  </wpt>
  <wpt lat="48.01421" lon="6.9446">
    <ele>765.2</ele>
  </wpt>
  <wpt lat="48.01358" lon="6.94473">
    <ele>770.2</ele>
  </wpt>
  <wpt lat="48.01215" lon="6.94392">
    <ele>773.4</ele>
  </wpt>
  <wpt lat="48.0108" lon="6.94246">
    <ele>760.8</ele>
  </wpt>
  <trk>
    <name><![CDATA[Les Champis-Collet-BelleHutte]]></name>
    <extensions>
      <line xmlns="http://www.topografix.com/GPX/gpx_style/0/2">
        <color>0000FF</color>
        <width>4</width>
      </line>
    </extensions>
    <trkseg>
      <trkpt lat="48.01786" lon="6.94109">
        <ele>859.10180664062</ele>
        <time>2018-04-29T12:01:01Z</time>
      </trkpt>
      <trkpt lat="48.01786" lon="6.94109">
        <ele>859.10180664062</ele>
        <time>2018-04-29T12:01:01Z</time>
      </trkpt>
      <trkpt lat="48.01793" lon="6.94129">
        <ele>857.03216552734</ele>
        <time>2018-04-29T12:01:01Z</time>
      </trkpt>
      <trkpt lat="48.01799" lon="6.94193">
        <ele>851.66430664062</ele>
        <time>2018-04-29T12:01:01Z</time>
      </trkpt>
      <trkpt lat="48.01793" lon="6.94196">
        <ele>849.68426513672</ele>
        <time>2018-04-29T12:01:05Z</time>
      </trkpt>
      <trkpt lat="48.01772" lon="6.94171">
        <ele>845.43768310547</ele>
        <time>2018-04-29T12:01:17Z</time>
      </trkpt>
      <trkpt lat="48.01741" lon="6.94147">
        <ele>840.11584472656</ele>
        <time>2018-04-29T12:01:19Z</time>
      </trkpt>
      <trkpt lat="48.01736" lon="6.94148">
        <ele>838.74633789062</ele>
        <time>2018-04-29T12:01:26Z</time>
      </trkpt>
      <trkpt lat="48.01736" lon="6.94159">
        <ele>837.2080078125</ele>
        <time>2018-04-29T12:01:35Z</time>
      </trkpt>
      <trkpt lat="48.01742" lon="6.9419">
        <ele>833.43365478516</ele>
        <time>2018-04-29T12:01:36Z</time>
      </trkpt>
      <trkpt lat="48.01763" lon="6.94291">
        <ele>824.0205078125</ele>
        <time>2018-04-29T12:01:38Z</time>
      </trkpt>
      <trkpt lat="48.01778" lon="6.94372">
        <ele>817.95916748047</ele>
        <time>2018-04-29T12:01:44Z</time>
      </trkpt>
      <trkpt lat="48.01779" lon="6.94377">
        <ele>816.89337158203</ele>
        <time>2018-04-29T12:02:03Z</time>
      </trkpt>
      <trkpt lat="48.01786" lon="6.94388">
        <ele>816.13665771484</ele>
        <time>2018-04-29T12:02:18Z</time>
      </trkpt>
      <trkpt lat="48.01799" lon="6.9443">
        <ele>812.51684570312</ele>
        <time>2018-04-29T12:02:19Z</time>
      </trkpt>
      <trkpt lat="48.01818" lon="6.94482">
        <ele>807.28802490234</ele>
        <time>2018-04-29T12:02:22Z</time>
      </trkpt>
      <trkpt lat="48.0182" lon="6.94484">
        <ele>807.50848388672</ele>
        <time>2018-04-29T12:02:30Z</time>
      </trkpt>
      <trkpt lat="48.0184" lon="6.9453">
        <ele>807.59204101562</ele>
        <time>2018-04-29T12:02:41Z</time>
      </trkpt>
      <trkpt lat="48.01885" lon="6.94611">
        <ele>803.81555175781</ele>
        <time>2018-04-29T12:02:41Z</time>
      </trkpt>
      <trkpt lat="48.01911" lon="6.94646">
        <ele>805.29272460938</ele>
        <time>2018-04-29T12:02:45Z</time>
      </trkpt>
      <trkpt lat="48.01941" lon="6.94679">
        <ele>806.66168212891</ele>
        <time>2018-04-29T12:02:57Z</time>
      </trkpt>
      <trkpt lat="48.01941" lon="6.94679">
        <ele>806.66168212891</ele>
        <time>2018-04-29T12:02:59Z</time>
      </trkpt>
      <trkpt lat="48.01946" lon="6.94686">
        <ele>805.65521240234</ele>
        <time>2018-04-29T12:03:06Z</time>
      </trkpt>
      <trkpt lat="48.01956" lon="6.94692">
        <ele>806.77398681641</ele>
        <time>2018-04-29T12:03:15Z</time>
      </trkpt>
      <trkpt lat="48.01968" lon="6.94707">
        <ele>805.25756835938</ele>
        <time>2018-04-29T12:03:16Z</time>
      </trkpt>
      <trkpt lat="48.01983" lon="6.94729">
        <ele>805.15924072266</ele>
        <time>2018-04-29T12:03:18Z</time>
      </trkpt>
      <trkpt lat="48.02023" lon="6.94786">
        <ele>802.21447753906</ele>
        <time>2018-04-29T12:03:24Z</time>
      </trkpt>
      <trkpt lat="48.02079" lon="6.94847">
        <ele>800.78137207031</ele>
        <time>2018-04-29T12:03:43Z</time>
      </trkpt>
      <trkpt lat="48.02112" lon="6.94884">
        <ele>802.99621582031</ele>
        <time>2018-04-29T12:03:58Z</time>
      </trkpt>
      <trkpt lat="48.02153" lon="6.94941">
        <ele>805.86462402344</ele>
        <time>2018-04-29T12:03:59Z</time>
      </trkpt>
      <trkpt lat="48.02177" lon="6.9497">
        <ele>803.19995117188</ele>
        <time>2018-04-29T12:04:02Z</time>
      </trkpt>
      <trkpt lat="48.0219" lon="6.94999">
        <ele>802.78558349609</ele>
        <time>2018-04-29T12:04:10Z</time>
      </trkpt>
      <trkpt lat="48.02195" lon="6.95021">
        <ele>802.28009033203</ele>
        <time>2018-04-29T12:04:21Z</time>
      </trkpt>
      <trkpt lat="48.02203" lon="6.95034">
        <ele>802.87994384766</ele>
        <time>2018-04-29T12:04:22Z</time>
      </trkpt>
      <trkpt lat="48.0221" lon="6.95045">
        <ele>802.22473144531</ele>
        <time>2018-04-29T12:04:32Z</time>
      </trkpt>
      <trkpt lat="48.02216" lon="6.95058">
        <ele>802.00830078125</ele>
        <time>2018-04-29T12:04:51Z</time>
      </trkpt>
      <trkpt lat="48.02216" lon="6.95058">
        <ele>802.00830078125</ele>
        <time>2018-04-29T12:05:00Z</time>
      </trkpt>
      <trkpt lat="48.02217" lon="6.95067">
        <ele>802.02508544922</ele>
        <time>2018-04-29T12:05:10Z</time>
      </trkpt>
      <trkpt lat="48.02214" lon="6.95081">
        <ele>801.34100341797</ele>
        <time>2018-04-29T12:05:10Z</time>
      </trkpt>
      <trkpt lat="48.02205" lon="6.95098">
        <ele>800.74633789062</ele>
        <time>2018-04-29T12:05:14Z</time>
      </trkpt>
      <trkpt lat="48.02195" lon="6.95109">
        <ele>800.19738769531</ele>
        <time>2018-04-29T12:05:26Z</time>
      </trkpt>
      <trkpt lat="48.02176" lon="6.95122">
        <ele>798.36114501953</ele>
        <time>2018-04-29T12:05:28Z</time>
      </trkpt>
      <trkpt lat="48.02176" lon="6.95122">
        <ele>798.36114501953</ele>
        <time>2018-04-29T12:05:35Z</time>
      </trkpt>
      <trkpt lat="48.02189" lon="6.95155">
        <ele>800.27740478516</ele>
        <time>2018-04-29T12:05:44Z</time>
      </trkpt>
      <trkpt lat="48.02202" lon="6.95189">
        <ele>801.865234375</ele>
        <time>2018-04-29T12:05:45Z</time>
      </trkpt>
      <trkpt lat="48.02215" lon="6.95213">
        <ele>803.52661132812</ele>
        <time>2018-04-29T12:05:47Z</time>
      </trkpt>
      <trkpt lat="48.02226" lon="6.95223">
        <ele>805.63458251953</ele>
        <time>2018-04-29T12:05:53Z</time>
      </trkpt>
      <trkpt lat="48.02261" lon="6.95249">
        <ele>806.92254638672</ele>
        <time>2018-04-29T12:06:12Z</time>
      </trkpt>
      <trkpt lat="48.02281" lon="6.95264">
        <ele>808.16522216797</ele>
        <time>2018-04-29T12:06:27Z</time>
      </trkpt>
      <trkpt lat="48.02293" lon="6.95265">
        <ele>808.89215087891</ele>
        <time>2018-04-29T12:06:28Z</time>
      </trkpt>
      <trkpt lat="48.02304" lon="6.95267">
        <ele>809.3798828125</ele>
        <time>2018-04-29T12:06:31Z</time>
      </trkpt>
      <trkpt lat="48.02343" lon="6.95288">
        <ele>814.04809570312</ele>
        <time>2018-04-29T12:06:39Z</time>
      </trkpt>
      <trkpt lat="48.02375" lon="6.95296">
        <ele>815.75170898438</ele>
        <time>2018-04-29T12:06:50Z</time>
      </trkpt>
      <trkpt lat="48.02388" lon="6.95297">
        <ele>817.12713623047</ele>
        <time>2018-04-29T12:06:51Z</time>
      </trkpt>
      <trkpt lat="48.02388" lon="6.95297">
        <ele>817.12713623047</ele>
        <time>2018-04-29T12:07:01Z</time>
      </trkpt>
      <trkpt lat="48.02426" lon="6.95293">
        <ele>820.61639404297</ele>
        <time>2018-04-29T12:07:20Z</time>
      </trkpt>
      <trkpt lat="48.02446" lon="6.95296">
        <ele>818.97534179688</ele>
        <time>2018-04-29T12:07:29Z</time>
      </trkpt>
      <trkpt lat="48.02454" lon="6.95304">
        <ele>817.82452392578</ele>
        <time>2018-04-29T12:07:39Z</time>
      </trkpt>
      <trkpt lat="48.02466" lon="6.95325">
        <ele>819.00659179688</ele>
        <time>2018-04-29T12:07:39Z</time>
      </trkpt>
      <trkpt lat="48.02478" lon="6.95352">
        <ele>819.72027587891</ele>
        <time>2018-04-29T12:07:41Z</time>
      </trkpt>
      <trkpt lat="48.02498" lon="6.95395">
        <ele>824.56750488281</ele>
        <time>2018-04-29T12:07:44Z</time>
      </trkpt>
      <trkpt lat="48.02506" lon="6.95411">
        <ele>823.98522949219</ele>
        <time>2018-04-29T12:07:48Z</time>
      </trkpt>
      <trkpt lat="48.02517" lon="6.95422">
        <ele>824.65643310547</ele>
        <time>2018-04-29T12:07:54Z</time>
      </trkpt>
      <trkpt lat="48.02525" lon="6.95433">
        <ele>824.01690673828</ele>
        <time>2018-04-29T12:08:09Z</time>
      </trkpt>
      <trkpt lat="48.02536" lon="6.9544">
        <ele>824.25476074219</ele>
        <time>2018-04-29T12:08:28Z</time>
      </trkpt>
      <trkpt lat="48.02555" lon="6.9546">
        <ele>826.60583496094</ele>
        <time>2018-04-29T12:08:39Z</time>
      </trkpt>
      <trkpt lat="48.02573" lon="6.95475">
        <ele>828.94738769531</ele>
        <time>2018-04-29T12:08:54Z</time>
      </trkpt>
      <trkpt lat="48.02589" lon="6.95478">
        <ele>830.31884765625</ele>
        <time>2018-04-29T12:09:02Z</time>
      </trkpt>
      <trkpt lat="48.02589" lon="6.95483">
        <ele>830.39874267578</ele>
        <time>2018-04-29T12:09:08Z</time>
      </trkpt>
      <trkpt lat="48.02569" lon="6.9551">
        <ele>828.89807128906</ele>
        <time>2018-04-29T12:09:12Z</time>
      </trkpt>
      <trkpt lat="48.02565" lon="6.95516">
        <ele>828.61029052734</ele>
        <time>2018-04-29T12:09:15Z</time>
      </trkpt>
      <trkpt lat="48.02564" lon="6.95541">
        <ele>828.68438720703</ele>
        <time>2018-04-29T12:09:18Z</time>
      </trkpt>
      <trkpt lat="48.02572" lon="6.95595">
        <ele>829.36206054688</ele>
        <time>2018-04-29T12:09:21Z</time>
      </trkpt>
      <trkpt lat="48.02579" lon="6.95625">
        <ele>829.81213378906</ele>
        <time>2018-04-29T12:09:21Z</time>
      </trkpt>
      <trkpt lat="48.02591" lon="6.95635">
        <ele>830.83026123047</ele>
        <time>2018-04-29T12:09:25Z</time>
      </trkpt>
      <trkpt lat="48.02602" lon="6.9564">
        <ele>831.87908935547</ele>
        <time>2018-04-29T12:09:37Z</time>
      </trkpt>
      <trkpt lat="48.02615" lon="6.95651">
        <ele>833.23406982422</ele>
        <time>2018-04-29T12:09:39Z</time>
      </trkpt>
      <trkpt lat="48.0262" lon="6.95661">
        <ele>833.41979980469</ele>
        <time>2018-04-29T12:09:46Z</time>
      </trkpt>
      <trkpt lat="48.0262" lon="6.95661">
        <ele>833.41979980469</ele>
        <time>2018-04-29T12:09:55Z</time>
      </trkpt>
      <trkpt lat="48.0264" lon="6.9571">
        <ele>834.0078125</ele>
        <time>2018-04-29T12:09:56Z</time>
      </trkpt>
      <trkpt lat="48.02651" lon="6.9572">
        <ele>835.04028320312</ele>
        <time>2018-04-29T12:09:58Z</time>
      </trkpt>
      <trkpt lat="48.02673" lon="6.9573">
        <ele>837.92474365234</ele>
        <time>2018-04-29T12:10:04Z</time>
      </trkpt>
      <trkpt lat="48.02704" lon="6.95736">
        <ele>843.72375488281</ele>
        <time>2018-04-29T12:10:23Z</time>
      </trkpt>
      <trkpt lat="48.0274" lon="6.95741">
        <ele>850.29217529297</ele>
        <time>2018-04-29T12:10:38Z</time>
      </trkpt>
      <trkpt lat="48.02756" lon="6.95741">
        <ele>853.39404296875</ele>
        <time>2018-04-29T12:10:39Z</time>
      </trkpt>
      <trkpt lat="48.02786" lon="6.95746">
        <ele>858.91949462891</ele>
        <time>2018-04-29T12:10:42Z</time>
      </trkpt>
      <trkpt lat="48.02792" lon="6.95748">
        <ele>859.87164306641</ele>
        <time>2018-04-29T12:10:50Z</time>
      </trkpt>
      <trkpt lat="48.02802" lon="6.95756">
        <ele>860.89184570312</ele>
        <time>2018-04-29T12:11:01Z</time>
      </trkpt>
      <trkpt lat="48.0281" lon="6.95763">
        <ele>861.45294189453</ele>
        <time>2018-04-29T12:11:02Z</time>
      </trkpt>
      <trkpt lat="48.02827" lon="6.95768">
        <ele>863.04742431641</ele>
        <time>2018-04-29T12:11:12Z</time>
      </trkpt>
      <trkpt lat="48.0285" lon="6.95768">
        <ele>866.48034667969</ele>
        <time>2018-04-29T12:11:31Z</time>
      </trkpt>
      <trkpt lat="48.0286" lon="6.95772">
        <ele>866.73876953125</ele>
        <time>2018-04-29T12:11:40Z</time>
      </trkpt>
      <trkpt lat="48.02871" lon="6.9578">
        <ele>866.19226074219</ele>
        <time>2018-04-29T12:11:50Z</time>
      </trkpt>
      <trkpt lat="48.02885" lon="6.95791">
        <ele>862.69012451172</ele>
        <time>2018-04-29T12:11:50Z</time>
      </trkpt>
      <trkpt lat="48.02899" lon="6.95799">
        <ele>859.30004882812</ele>
        <time>2018-04-29T12:11:52Z</time>
      </trkpt>
      <trkpt lat="48.02915" lon="6.95801">
        <ele>862.51104736328</ele>
        <time>2018-04-29T12:11:55Z</time>
      </trkpt>
      <trkpt lat="48.02941" lon="6.95796">
        <ele>870.71026611328</ele>
        <time>2018-04-29T12:11:59Z</time>
      </trkpt>
      <trkpt lat="48.02954" lon="6.958">
        <ele>870.68304443359</ele>
        <time>2018-04-29T12:12:05Z</time>
      </trkpt>
      <trkpt lat="48.02977" lon="6.95814">
        <ele>872.49176025391</ele>
        <time>2018-04-29T12:12:20Z</time>
      </trkpt>
      <trkpt lat="48.03031" lon="6.95839">
        <ele>872.36834716797</ele>
        <time>2018-04-29T12:12:39Z</time>
      </trkpt>
      <trkpt lat="48.03131" lon="6.95891">
        <ele>877.38842773438</ele>
        <time>2018-04-29T12:12:50Z</time>
      </trkpt>
      <trkpt lat="48.03168" lon="6.95912">
        <ele>878.52960205078</ele>
        <time>2018-04-29T12:13:05Z</time>
      </trkpt>
      <trkpt lat="48.03168" lon="6.95912">
        <ele>878.52960205078</ele>
        <time>2018-04-29T12:13:13Z</time>
      </trkpt>
      <trkpt lat="48.03208" lon="6.9593">
        <ele>878.21331787109</ele>
        <time>2018-04-29T12:13:19Z</time>
      </trkpt>
      <trkpt lat="48.03224" lon="6.95934">
        <ele>876.80639648438</ele>
        <time>2018-04-29T12:13:23Z</time>
      </trkpt>
      <trkpt lat="48.03253" lon="6.95929">
        <ele>876.81030273438</ele>
        <time>2018-04-29T12:13:26Z</time>
      </trkpt>
      <trkpt lat="48.03262" lon="6.95931">
        <ele>877.052734375</ele>
        <time>2018-04-29T12:13:29Z</time>
      </trkpt>
      <trkpt lat="48.03272" lon="6.95934">
        <ele>877.27551269531</ele>
        <time>2018-04-29T12:13:32Z</time>
      </trkpt>
      <trkpt lat="48.03296" lon="6.95953">
        <ele>881.12994384766</ele>
        <time>2018-04-29T12:13:32Z</time>
      </trkpt>
      <trkpt lat="48.03336" lon="6.95995">
        <ele>883.91418457031</ele>
        <time>2018-04-29T12:13:34Z</time>
      </trkpt>
      <trkpt lat="48.03344" lon="6.95998">
        <ele>884.89166259766</ele>
        <time>2018-04-29T12:13:37Z</time>
      </trkpt>
      <trkpt lat="48.03344" lon="6.95998">
        <ele>884.89166259766</ele>
        <time>2018-04-29T12:13:41Z</time>
      </trkpt>
      <trkpt lat="48.03374" lon="6.96018">
        <ele>887.11920166016</ele>
        <time>2018-04-29T12:13:44Z</time>
      </trkpt>
      <trkpt lat="48.03391" lon="6.96036">
        <ele>886.97784423828</ele>
        <time>2018-04-29T12:13:50Z</time>
      </trkpt>
      <trkpt lat="48.03403" lon="6.96067">
        <ele>889.06304931641</ele>
        <time>2018-04-29T12:13:50Z</time>
      </trkpt>
      <trkpt lat="48.03422" lon="6.96106">
        <ele>888.35290527344</ele>
        <time>2018-04-29T12:13:54Z</time>
      </trkpt>
      <trkpt lat="48.03448" lon="6.96139">
        <ele>890.39270019531</ele>
        <time>2018-04-29T12:14:06Z</time>
      </trkpt>
      <trkpt lat="48.03477" lon="6.96166">
        <ele>891.35528564453</ele>
        <time>2018-04-29T12:14:08Z</time>
      </trkpt>
      <trkpt lat="48.03492" lon="6.96173">
        <ele>892.11492919922</ele>
        <time>2018-04-29T12:14:15Z</time>
      </trkpt>
      <trkpt lat="48.03492" lon="6.96173">
        <ele>892.11492919922</ele>
        <time>2018-04-29T12:14:24Z</time>
      </trkpt>
      <trkpt lat="48.03495" lon="6.96174">
        <ele>892.966796875</ele>
        <time>2018-04-29T12:14:25Z</time>
      </trkpt>
      <trkpt lat="48.03498" lon="6.96195">
        <ele>890.71624755859</ele>
        <time>2018-04-29T12:14:27Z</time>
      </trkpt>
      <trkpt lat="48.0351" lon="6.96296">
        <ele>885.94464111328</ele>
        <time>2018-04-29T12:14:33Z</time>
      </trkpt>
      <trkpt lat="48.03514" lon="6.96327">
        <ele>881.55743408203</ele>
        <time>2018-04-29T12:14:52Z</time>
      </trkpt>
      <trkpt lat="48.03524" lon="6.9637">
        <ele>883.20825195312</ele>
        <time>2018-04-29T12:15:07Z</time>
      </trkpt>
      <trkpt lat="48.03542" lon="6.96414">
        <ele>881.11437988281</ele>
        <time>2018-04-29T12:15:08Z</time>
      </trkpt>
      <trkpt lat="48.03577" lon="6.96484">
        <ele>881.876953125</ele>
        <time>2018-04-29T12:15:11Z</time>
      </trkpt>
      <trkpt lat="48.03658" lon="6.96689">
        <ele>889.96179199219</ele>
        <time>2018-04-29T12:15:19Z</time>
      </trkpt>
      <trkpt lat="48.03664" lon="6.96701">
        <ele>890.60443115234</ele>
        <time>2018-04-29T12:15:30Z</time>
      </trkpt>
      <trkpt lat="48.03664" lon="6.96701">
        <ele>890.60443115234</ele>
        <time>2018-04-29T12:15:31Z</time>
      </trkpt>
      <trkpt lat="48.03661" lon="6.96759">
        <ele>891.48406982422</ele>
        <time>2018-04-29T12:15:41Z</time>
      </trkpt>
      <trkpt lat="48.03664" lon="6.96789">
        <ele>891.08862304688</ele>
        <time>2018-04-29T12:16:00Z</time>
      </trkpt>
      <trkpt lat="48.03678" lon="6.96831">
        <ele>891.79406738281</ele>
        <time>2018-04-29T12:16:09Z</time>
      </trkpt>
      <trkpt lat="48.03688" lon="6.96857">
        <ele>892.37902832031</ele>
        <time>2018-04-29T12:16:19Z</time>
      </trkpt>
      <trkpt lat="48.03686" lon="6.9686">
        <ele>892.49304199219</ele>
        <time>2018-04-29T12:16:19Z</time>
      </trkpt>
      <trkpt lat="48.03686" lon="6.96861">
        <ele>892.52496337891</ele>
        <time>2018-04-29T12:16:21Z</time>
      </trkpt>
      <trkpt lat="48.03686" lon="6.96861">
        <ele>892.52496337891</ele>
        <time>2018-04-29T12:16:24Z</time>
      </trkpt>
      <trkpt lat="48.03675" lon="6.96892">
        <ele>892.90112304688</ele>
        <time>2018-04-29T12:16:28Z</time>
      </trkpt>
      <trkpt lat="48.03681" lon="6.9691">
        <ele>893.87902832031</ele>
        <time>2018-04-29T12:16:34Z</time>
      </trkpt>
      <trkpt lat="48.03688" lon="6.96921">
        <ele>894.29895019531</ele>
        <time>2018-04-29T12:16:49Z</time>
      </trkpt>
      <trkpt lat="48.03697" lon="6.96932">
        <ele>894.95666503906</ele>
        <time>2018-04-29T12:17:08Z</time>
      </trkpt>
      <trkpt lat="48.03714" lon="6.96954">
        <ele>896.81072998047</ele>
        <time>2018-04-29T12:17:19Z</time>
      </trkpt>
      <trkpt lat="48.03731" lon="6.96981">
        <ele>898.48229980469</ele>
        <time>2018-04-29T12:17:34Z</time>
      </trkpt>
      <trkpt lat="48.03754" lon="6.97019">
        <ele>901.21936035156</ele>
        <time>2018-04-29T12:17:42Z</time>
      </trkpt>
      <trkpt lat="48.03787" lon="6.97079">
        <ele>905.81585693359</ele>
        <time>2018-04-29T12:17:48Z</time>
      </trkpt>
      <trkpt lat="48.03814" lon="6.97126">
        <ele>908.82049560547</ele>
        <time>2018-04-29T12:17:52Z</time>
      </trkpt>
      <trkpt lat="48.03826" lon="6.97141">
        <ele>909.95947265625</ele>
        <time>2018-04-29T12:17:55Z</time>
      </trkpt>
      <trkpt lat="48.0386" lon="6.97173">
        <ele>911.54742431641</ele>
        <time>2018-04-29T12:17:58Z</time>
      </trkpt>
      <trkpt lat="48.03897" lon="6.97204">
        <ele>913.77258300781</ele>
        <time>2018-04-29T12:18:01Z</time>
      </trkpt>
      <trkpt lat="48.03924" lon="6.97231">
        <ele>915.96966552734</ele>
        <time>2018-04-29T12:18:01Z</time>
      </trkpt>
      <trkpt lat="48.03939" lon="6.97255">
        <ele>916.32067871094</ele>
        <time>2018-04-29T12:18:03Z</time>
      </trkpt>
      <trkpt lat="48.03951" lon="6.9729">
        <ele>919.49871826172</ele>
        <time>2018-04-29T12:18:06Z</time>
      </trkpt>
      <trkpt lat="48.03959" lon="6.97329">
        <ele>922.04876708984</ele>
        <time>2018-04-29T12:18:10Z</time>
      </trkpt>
      <trkpt lat="48.03959" lon="6.97329">
        <ele>922.04876708984</ele>
        <time>2018-04-29T12:18:13Z</time>
      </trkpt>
      <trkpt lat="48.03968" lon="6.97347">
        <ele>922.82641601562</ele>
        <time>2018-04-29T12:18:19Z</time>
      </trkpt>
      <trkpt lat="48.03974" lon="6.97353">
        <ele>923.0849609375</ele>
        <time>2018-04-29T12:18:19Z</time>
      </trkpt>
      <trkpt lat="48.03978" lon="6.97366">
        <ele>923.91149902344</ele>
        <time>2018-04-29T12:18:26Z</time>
      </trkpt>
      <trkpt lat="48.03978" lon="6.97388">
        <ele>924.75518798828</ele>
        <time>2018-04-29T12:18:33Z</time>
      </trkpt>
      <trkpt lat="48.0398" lon="6.97401">
        <ele>924.46508789062</ele>
        <time>2018-04-29T12:18:39Z</time>
      </trkpt>
      <trkpt lat="48.03985" lon="6.97416">
        <ele>925.60693359375</ele>
        <time>2018-04-29T12:18:42Z</time>
      </trkpt>
      <trkpt lat="48.03992" lon="6.97433">
        <ele>926.23248291016</ele>
        <time>2018-04-29T12:18:52Z</time>
      </trkpt>
      <trkpt lat="48.03998" lon="6.97423">
        <ele>926.33673095703</ele>
        <time>2018-04-29T12:18:58Z</time>
      </trkpt>
      <trkpt lat="48.04003" lon="6.97429">
        <ele>926.20635986328</ele>
        <time>2018-04-29T12:19:01Z</time>
      </trkpt>
      <trkpt lat="48.04003" lon="6.97429">
        <ele>926.20635986328</ele>
        <time>2018-04-29T12:19:04Z</time>
      </trkpt>
      <trkpt lat="48.04035" lon="6.97461">
        <ele>925.89837646484</ele>
        <time>2018-04-29T12:19:15Z</time>
      </trkpt>
      <trkpt lat="48.04095" lon="6.97496">
        <ele>926.97137451172</ele>
        <time>2018-04-29T12:19:24Z</time>
      </trkpt>
      <trkpt lat="48.04216" lon="6.97544">
        <ele>929.95404052734</ele>
        <time>2018-04-29T12:19:27Z</time>
      </trkpt>
      <trkpt lat="48.0425" lon="6.97556">
        <ele>929.93200683594</ele>
        <time>2018-04-29T12:19:27Z</time>
      </trkpt>
      <trkpt lat="48.04282" lon="6.97578">
        <ele>930.85748291016</ele>
        <time>2018-04-29T12:19:31Z</time>
      </trkpt>
      <trkpt lat="48.04282" lon="6.97578">
        <ele>930.85748291016</ele>
        <time>2018-04-29T12:19:43Z</time>
      </trkpt>
      <trkpt lat="48.0425" lon="6.97556">
        <ele>929.93200683594</ele>
        <time>2018-04-29T12:19:45Z</time>
      </trkpt>
      <trkpt lat="48.04216" lon="6.97544">
        <ele>929.95404052734</ele>
        <time>2018-04-29T12:19:52Z</time>
      </trkpt>
      <trkpt lat="48.04095" lon="6.97496">
        <ele>926.97137451172</ele>
        <time>2018-04-29T12:20:01Z</time>
      </trkpt>
      <trkpt lat="48.04035" lon="6.97461">
        <ele>925.89837646484</ele>
        <time>2018-04-29T12:20:02Z</time>
      </trkpt>
      <trkpt lat="48.03998" lon="6.97423">
        <ele>926.33673095703</ele>
        <time>2018-04-29T12:20:04Z</time>
      </trkpt>
      <trkpt lat="48.03992" lon="6.97433">
        <ele>926.23248291016</ele>
        <time>2018-04-29T12:20:10Z</time>
      </trkpt>
      <trkpt lat="48.04012" lon="6.97464">
        <ele>927.36297607422</ele>
        <time>2018-04-29T12:20:29Z</time>
      </trkpt>
      <trkpt lat="48.04026" lon="6.9748">
        <ele>928.9765625</ele>
        <time>2018-04-29T12:20:44Z</time>
      </trkpt>
      <trkpt lat="48.04047" lon="6.97498">
        <ele>929.69110107422</ele>
        <time>2018-04-29T12:20:45Z</time>
      </trkpt>
      <trkpt lat="48.04069" lon="6.97512">
        <ele>930.92095947266</ele>
        <time>2018-04-29T12:20:48Z</time>
      </trkpt>
      <trkpt lat="48.04098" lon="6.97527">
        <ele>932.09588623047</ele>
        <time>2018-04-29T12:20:56Z</time>
      </trkpt>
      <trkpt lat="48.04175" lon="6.97554">
        <ele>933.81335449219</ele>
        <time>2018-04-29T12:21:07Z</time>
      </trkpt>
      <trkpt lat="48.04232" lon="6.97578">
        <ele>935.81097412109</ele>
        <time>2018-04-29T12:21:08Z</time>
      </trkpt>
      <trkpt lat="48.04279" lon="6.97603">
        <ele>938.89733886719</ele>
        <time>2018-04-29T12:21:18Z</time>
      </trkpt>
      <trkpt lat="48.043" lon="6.9761">
        <ele>939.19750976562</ele>
        <time>2018-04-29T12:21:37Z</time>
      </trkpt>
      <trkpt lat="48.04326" lon="6.97613">
        <ele>940.72589111328</ele>
        <time>2018-04-29T12:21:46Z</time>
      </trkpt>
      <trkpt lat="48.04372" lon="6.97614">
        <ele>940.88043212891</ele>
        <time>2018-04-29T12:21:56Z</time>
      </trkpt>
      <trkpt lat="48.04412" lon="6.97611">
        <ele>940.92340087891</ele>
        <time>2018-04-29T12:21:56Z</time>
      </trkpt>
      <trkpt lat="48.04448" lon="6.9761">
        <ele>942.49853515625</ele>
        <time>2018-04-29T12:21:58Z</time>
      </trkpt>
      <trkpt lat="48.04485" lon="6.97611">
        <ele>944.60174560547</ele>
        <time>2018-04-29T12:22:01Z</time>
      </trkpt>
      <trkpt lat="48.04518" lon="6.97613">
        <ele>946.16180419922</ele>
        <time>2018-04-29T12:22:05Z</time>
      </trkpt>
      <trkpt lat="48.04553" lon="6.97608">
        <ele>946.49938964844</ele>
        <time>2018-04-29T12:22:11Z</time>
      </trkpt>
      <trkpt lat="48.0462" lon="6.97595">
        <ele>948.376953125</ele>
        <time>2018-04-29T12:22:26Z</time>
      </trkpt>
      <trkpt lat="48.04668" lon="6.97577">
        <ele>949.83227539062</ele>
        <time>2018-04-29T12:22:45Z</time>
      </trkpt>
      <trkpt lat="48.04701" lon="6.97568">
        <ele>951.41064453125</ele>
        <time>2018-04-29T12:22:56Z</time>
      </trkpt>
      <trkpt lat="48.04702" lon="6.9756">
        <ele>950.60009765625</ele>
        <time>2018-04-29T12:23:11Z</time>
      </trkpt>
      <trkpt lat="48.04709" lon="6.97552">
        <ele>950.40173339844</ele>
        <time>2018-04-29T12:23:19Z</time>
      </trkpt>
      <trkpt lat="48.0471" lon="6.97551">
        <ele>950.42041015625</ele>
        <time>2018-04-29T12:23:25Z</time>
      </trkpt>
      <trkpt lat="48.0471" lon="6.97551">
        <ele>950.42041015625</ele>
        <time>2018-04-29T12:23:29Z</time>
      </trkpt>
      <trkpt lat="48.04702" lon="6.9756">
        <ele>950.60009765625</ele>
        <time>2018-04-29T12:23:32Z</time>
      </trkpt>
      <trkpt lat="48.04701" lon="6.97568">
        <ele>951.41064453125</ele>
        <time>2018-04-29T12:23:35Z</time>
      </trkpt>
      <trkpt lat="48.04715" lon="6.97568">
        <ele>952.51574707031</ele>
        <time>2018-04-29T12:23:38Z</time>
      </trkpt>
      <trkpt lat="48.04731" lon="6.9757">
        <ele>952.63995361328</ele>
        <time>2018-04-29T12:23:38Z</time>
      </trkpt>
      <trkpt lat="48.04749" lon="6.97575">
        <ele>953.20367431641</ele>
        <time>2018-04-29T12:23:40Z</time>
      </trkpt>
      <trkpt lat="48.04763" lon="6.97584">
        <ele>954.03161621094</ele>
        <time>2018-04-29T12:23:43Z</time>
      </trkpt>
      <trkpt lat="48.04763" lon="6.97584">
        <ele>954.03161621094</ele>
        <time>2018-04-29T12:23:47Z</time>
      </trkpt>
      <trkpt lat="48.04769" lon="6.97552">
        <ele>953.72863769531</ele>
        <time>2018-04-29T12:23:50Z</time>
      </trkpt>
      <trkpt lat="48.04772" lon="6.97526">
        <ele>954.78137207031</ele>
        <time>2018-04-29T12:23:56Z</time>
      </trkpt>
      <trkpt lat="48.04783" lon="6.97466">
        <ele>957.63726806641</ele>
        <time>2018-04-29T12:23:56Z</time>
      </trkpt>
      <trkpt lat="48.04786" lon="6.97436">
        <ele>959.22821044922</ele>
        <time>2018-04-29T12:24:03Z</time>
      </trkpt>
      <trkpt lat="48.04786" lon="6.97375">
        <ele>962.74768066406</ele>
        <time>2018-04-29T12:24:10Z</time>
      </trkpt>
      <trkpt lat="48.04784" lon="6.97359">
        <ele>963.47625732422</ele>
        <time>2018-04-29T12:24:16Z</time>
      </trkpt>
      <trkpt lat="48.04772" lon="6.97332">
        <ele>964.505859375</ele>
        <time>2018-04-29T12:24:19Z</time>
      </trkpt>
      <trkpt lat="48.04753" lon="6.97304">
        <ele>966.361328125</ele>
        <time>2018-04-29T12:24:29Z</time>
      </trkpt>
      <trkpt lat="48.0474" lon="6.97278">
        <ele>967.39489746094</ele>
        <time>2018-04-29T12:24:35Z</time>
      </trkpt>
      <trkpt lat="48.04725" lon="6.97229">
        <ele>970.47863769531</ele>
        <time>2018-04-29T12:24:38Z</time>
      </trkpt>
      <trkpt lat="48.04721" lon="6.97204">
        <ele>972.68432617188</ele>
        <time>2018-04-29T12:24:41Z</time>
      </trkpt>
      <trkpt lat="48.04721" lon="6.97204">
        <ele>972.68432617188</ele>
        <time>2018-04-29T12:24:52Z</time>
      </trkpt>
      <trkpt lat="48.04721" lon="6.97182">
        <ele>974.51470947266</ele>
        <time>2018-04-29T12:25:01Z</time>
      </trkpt>
      <trkpt lat="48.04729" lon="6.97151">
        <ele>976.50457763672</ele>
        <time>2018-04-29T12:25:04Z</time>
      </trkpt>
      <trkpt lat="48.04734" lon="6.9712">
        <ele>977.89703369141</ele>
        <time>2018-04-29T12:25:04Z</time>
      </trkpt>
      <trkpt lat="48.04733" lon="6.97081">
        <ele>979.63983154297</ele>
        <time>2018-04-29T12:25:14Z</time>
      </trkpt>
      <trkpt lat="48.04722" lon="6.97018">
        <ele>981.32403564453</ele>
        <time>2018-04-29T12:25:19Z</time>
      </trkpt>
      <trkpt lat="48.04702" lon="6.96943">
        <ele>984.09521484375</ele>
        <time>2018-04-29T12:25:22Z</time>
      </trkpt>
      <trkpt lat="48.04697" lon="6.9691">
        <ele>986.4951171875</ele>
        <time>2018-04-29T12:25:27Z</time>
      </trkpt>
      <trkpt lat="48.04698" lon="6.96885">
        <ele>988.01721191406</ele>
        <time>2018-04-29T12:25:33Z</time>
      </trkpt>
      <trkpt lat="48.04704" lon="6.96858">
        <ele>989.40905761719</ele>
        <time>2018-04-29T12:25:42Z</time>
      </trkpt>
      <trkpt lat="48.04716" lon="6.96825">
        <ele>990.42120361328</ele>
        <time>2018-04-29T12:25:46Z</time>
      </trkpt>
      <trkpt lat="48.04729" lon="6.96792">
        <ele>989.49499511719</ele>
        <time>2018-04-29T12:25:50Z</time>
      </trkpt>
      <trkpt lat="48.04729" lon="6.96792">
        <ele>989.49499511719</ele>
        <time>2018-04-29T12:25:53Z</time>
      </trkpt>
      <trkpt lat="48.04736" lon="6.96777">
        <ele>989.66137695312</ele>
        <time>2018-04-29T12:25:56Z</time>
      </trkpt>
      <trkpt lat="48.0471" lon="6.96749">
        <ele>989.72863769531</ele>
        <time>2018-04-29T12:26:02Z</time>
      </trkpt>
      <trkpt lat="48.04673" lon="6.96713">
        <ele>989.08978271484</ele>
        <time>2018-04-29T12:26:08Z</time>
      </trkpt>
      <trkpt lat="48.04663" lon="6.96705">
        <ele>990.12042236328</ele>
        <time>2018-04-29T12:26:12Z</time>
      </trkpt>
      <trkpt lat="48.04658" lon="6.96695">
        <ele>991.23980712891</ele>
        <time>2018-04-29T12:26:13Z</time>
      </trkpt>
      <trkpt lat="48.04654" lon="6.9669">
        <ele>992.89080810547</ele>
        <time>2018-04-29T12:26:20Z</time>
      </trkpt>
      <trkpt lat="48.04649" lon="6.96688">
        <ele>994.54022216797</ele>
        <time>2018-04-29T12:26:22Z</time>
      </trkpt>
      <trkpt lat="48.04644" lon="6.96689">
        <ele>995.51953125</ele>
        <time>2018-04-29T12:26:26Z</time>
      </trkpt>
      <trkpt lat="48.04637" lon="6.96709">
        <ele>1002.0184936523</ele>
        <time>2018-04-29T12:26:36Z</time>
      </trkpt>
      <trkpt lat="48.04631" lon="6.96772">
        <ele>1006.4047851562</ele>
        <time>2018-04-29T12:26:42Z</time>
      </trkpt>
      <trkpt lat="48.04625" lon="6.96817">
        <ele>1006.8681030273</ele>
        <time>2018-04-29T12:26:46Z</time>
      </trkpt>
      <trkpt lat="48.04616" lon="6.96837">
        <ele>1008.0408325195</ele>
        <time>2018-04-29T12:26:49Z</time>
      </trkpt>
      <trkpt lat="48.0459" lon="6.96863">
        <ele>1014.560546875</ele>
        <time>2018-04-29T12:26:53Z</time>
      </trkpt>
      <trkpt lat="48.0456" lon="6.9689">
        <ele>1015.783996582</ele>
        <time>2018-04-29T12:26:55Z</time>
      </trkpt>
      <trkpt lat="48.04541" lon="6.96914">
        <ele>1011.5833129883</ele>
        <time>2018-04-29T12:26:55Z</time>
      </trkpt>
      <trkpt lat="48.04525" lon="6.96946">
        <ele>1005.3298950195</ele>
        <time>2018-04-29T12:26:59Z</time>
      </trkpt>
      <trkpt lat="48.04508" lon="6.96971">
        <ele>1001.6500854492</ele>
        <time>2018-04-29T12:27:11Z</time>
      </trkpt>
      <trkpt lat="48.04499" lon="6.96978">
        <ele>1003.5082397461</ele>
        <time>2018-04-29T12:27:13Z</time>
      </trkpt>
      <trkpt lat="48.04487" lon="6.96983">
        <ele>1005.0178222656</ele>
        <time>2018-04-29T12:27:20Z</time>
      </trkpt>
      <trkpt lat="48.04468" lon="6.96989">
        <ele>1004.2908935547</ele>
        <time>2018-04-29T12:27:29Z</time>
      </trkpt>
      <trkpt lat="48.0439" lon="6.96981">
        <ele>1011.1483154297</ele>
        <time>2018-04-29T12:27:30Z</time>
      </trkpt>
      <trkpt lat="48.04383" lon="6.96977">
        <ele>1012.0934448242</ele>
        <time>2018-04-29T12:27:32Z</time>
      </trkpt>
      <trkpt lat="48.04384" lon="6.96964">
        <ele>1014.9823608398</ele>
        <time>2018-04-29T12:27:38Z</time>
      </trkpt>
      <trkpt lat="48.04394" lon="6.96959">
        <ele>1014.9710693359</ele>
        <time>2018-04-29T12:27:57Z</time>
      </trkpt>
      <trkpt lat="48.04402" lon="6.96958">
        <ele>1015.0715332031</ele>
        <time>2018-04-29T12:28:12Z</time>
      </trkpt>
      <trkpt lat="48.04436" lon="6.96936">
        <ele>1014.9571533203</ele>
        <time>2018-04-29T12:28:13Z</time>
      </trkpt>
      <trkpt lat="48.04442" lon="6.96924">
        <ele>1015.9285888672</ele>
        <time>2018-04-29T12:28:16Z</time>
      </trkpt>
      <trkpt lat="48.0444" lon="6.96914">
        <ele>1018.5921630859</ele>
        <time>2018-04-29T12:28:24Z</time>
      </trkpt>
      <trkpt lat="48.04433" lon="6.96912">
        <ele>1020.0975952148</ele>
        <time>2018-04-29T12:28:35Z</time>
      </trkpt>
      <trkpt lat="48.04403" lon="6.96923">
        <ele>1021.5163574219</ele>
        <time>2018-04-29T12:28:36Z</time>
      </trkpt>
      <trkpt lat="48.04352" lon="6.96946">
        <ele>1026.5528564453</ele>
        <time>2018-04-29T12:28:46Z</time>
      </trkpt>
      <trkpt lat="48.04344" lon="6.9695">
        <ele>1029.3483886719</ele>
        <time>2018-04-29T12:29:05Z</time>
      </trkpt>
      <trkpt lat="48.04333" lon="6.9696">
        <ele>1030.9294433594</ele>
        <time>2018-04-29T12:29:14Z</time>
      </trkpt>
      <trkpt lat="48.04308" lon="6.96982">
        <ele>1033.6768798828</ele>
        <time>2018-04-29T12:29:24Z</time>
      </trkpt>
      <trkpt lat="48.0429" lon="6.96996">
        <ele>1032.4782714844</ele>
        <time>2018-04-29T12:29:24Z</time>
      </trkpt>
      <trkpt lat="48.04279" lon="6.97001">
        <ele>1033.2132568359</ele>
        <time>2018-04-29T12:29:26Z</time>
      </trkpt>
      <trkpt lat="48.04267" lon="6.97007">
        <ele>1032.3740234375</ele>
        <time>2018-04-29T12:29:29Z</time>
      </trkpt>
      <trkpt lat="48.04255" lon="6.97018">
        <ele>1031.1727294922</ele>
        <time>2018-04-29T12:29:33Z</time>
      </trkpt>
      <trkpt lat="48.04228" lon="6.97047">
        <ele>1030.7291259766</ele>
        <time>2018-04-29T12:29:39Z</time>
      </trkpt>
      <trkpt lat="48.04222" lon="6.97051">
        <ele>1030.8411865234</ele>
        <time>2018-04-29T12:29:54Z</time>
      </trkpt>
      <trkpt lat="48.04217" lon="6.9705">
        <ele>1031.8924560547</ele>
        <time>2018-04-29T12:30:13Z</time>
      </trkpt>
      <trkpt lat="48.04215" lon="6.97041">
        <ele>1034.126953125</ele>
        <time>2018-04-29T12:30:24Z</time>
      </trkpt>
      <trkpt lat="48.04229" lon="6.97022">
        <ele>1035.77734375</ele>
        <time>2018-04-29T12:30:39Z</time>
      </trkpt>
      <trkpt lat="48.04254" lon="6.96985">
        <ele>1038.1976318359</ele>
        <time>2018-04-29T12:30:47Z</time>
      </trkpt>
      <trkpt lat="48.04268" lon="6.96948">
        <ele>1040.6694335938</ele>
        <time>2018-04-29T12:30:53Z</time>
      </trkpt>
      <trkpt lat="48.04273" lon="6.96923">
        <ele>1042.3793945312</ele>
        <time>2018-04-29T12:30:57Z</time>
      </trkpt>
      <trkpt lat="48.04272" lon="6.96914">
        <ele>1042.4979248047</ele>
        <time>2018-04-29T12:31:00Z</time>
      </trkpt>
      <trkpt lat="48.04268" lon="6.96905">
        <ele>1042.6712646484</ele>
        <time>2018-04-29T12:31:03Z</time>
      </trkpt>
      <trkpt lat="48.04245" lon="6.96881">
        <ele>1046.2532958984</ele>
        <time>2018-04-29T12:31:06Z</time>
      </trkpt>
      <trkpt lat="48.04219" lon="6.96864">
        <ele>1047.3084716797</ele>
        <time>2018-04-29T12:31:06Z</time>
      </trkpt>
      <trkpt lat="48.0421" lon="6.9685">
        <ele>1047.2508544922</ele>
        <time>2018-04-29T12:31:08Z</time>
      </trkpt>
      <trkpt lat="48.04199" lon="6.9682">
        <ele>1048.7371826172</ele>
        <time>2018-04-29T12:31:11Z</time>
      </trkpt>
      <trkpt lat="48.04189" lon="6.96787">
        <ele>1050.2647705078</ele>
        <time>2018-04-29T12:31:15Z</time>
      </trkpt>
      <trkpt lat="48.04187" lon="6.96766">
        <ele>1051.1990966797</ele>
        <time>2018-04-29T12:31:18Z</time>
      </trkpt>
      <trkpt lat="48.04193" lon="6.96734">
        <ele>1053.8800048828</ele>
        <time>2018-04-29T12:31:24Z</time>
      </trkpt>
      <trkpt lat="48.04197" lon="6.96706">
        <ele>1054.685546875</ele>
        <time>2018-04-29T12:31:24Z</time>
      </trkpt>
      <trkpt lat="48.04196" lon="6.96683">
        <ele>1055.373046875</ele>
        <time>2018-04-29T12:31:31Z</time>
      </trkpt>
      <trkpt lat="48.04189" lon="6.96655">
        <ele>1055.9331054688</ele>
        <time>2018-04-29T12:31:38Z</time>
      </trkpt>
      <trkpt lat="48.0419" lon="6.96643">
        <ele>1056.41015625</ele>
        <time>2018-04-29T12:31:44Z</time>
      </trkpt>
      <trkpt lat="48.0419" lon="6.96643">
        <ele>1056.41015625</ele>
        <time>2018-04-29T12:31:47Z</time>
      </trkpt>
      <trkpt lat="48.04192" lon="6.9664">
        <ele>1056.8388671875</ele>
        <time>2018-04-29T12:31:57Z</time>
      </trkpt>
      <trkpt lat="48.04198" lon="6.96646">
        <ele>1058.3049316406</ele>
        <time>2018-04-29T12:32:03Z</time>
      </trkpt>
      <trkpt lat="48.04206" lon="6.96673">
        <ele>1060.0966796875</ele>
        <time>2018-04-29T12:32:06Z</time>
      </trkpt>
      <trkpt lat="48.0422" lon="6.96699">
        <ele>1061.8278808594</ele>
        <time>2018-04-29T12:32:09Z</time>
      </trkpt>
      <trkpt lat="48.04239" lon="6.96732">
        <ele>1062.3656005859</ele>
        <time>2018-04-29T12:32:20Z</time>
      </trkpt>
      <trkpt lat="48.04244" lon="6.96739">
        <ele>1062.4738769531</ele>
        <time>2018-04-29T12:32:29Z</time>
      </trkpt>
      <trkpt lat="48.04253" lon="6.96745">
        <ele>1063.6524658203</ele>
        <time>2018-04-29T12:32:32Z</time>
      </trkpt>
      <trkpt lat="48.0431" lon="6.96761">
        <ele>1067.3533935547</ele>
        <time>2018-04-29T12:32:32Z</time>
      </trkpt>
      <trkpt lat="48.04329" lon="6.96763">
        <ele>1068.0173339844</ele>
        <time>2018-04-29T12:32:42Z</time>
      </trkpt>
      <trkpt lat="48.04345" lon="6.96762">
        <ele>1068.5283203125</ele>
        <time>2018-04-29T12:32:47Z</time>
      </trkpt>
      <trkpt lat="48.04359" lon="6.96756">
        <ele>1070.0748291016</ele>
        <time>2018-04-29T12:32:50Z</time>
      </trkpt>
      <trkpt lat="48.04379" lon="6.96743">
        <ele>1072.1411132812</ele>
        <time>2018-04-29T12:32:55Z</time>
      </trkpt>
      <trkpt lat="48.04387" lon="6.96732">
        <ele>1073.3060302734</ele>
        <time>2018-04-29T12:33:01Z</time>
      </trkpt>
      <trkpt lat="48.04388" lon="6.9673">
        <ele>1073.5157470703</ele>
        <time>2018-04-29T12:33:10Z</time>
      </trkpt>
      <trkpt lat="48.04428" lon="6.96709">
        <ele>1076.8355712891</ele>
        <time>2018-04-29T12:33:14Z</time>
      </trkpt>
      <trkpt lat="48.04438" lon="6.96708">
        <ele>1075.6109619141</ele>
        <time>2018-04-29T12:33:18Z</time>
      </trkpt>
      <trkpt lat="48.04456" lon="6.9671">
        <ele>1071.5904541016</ele>
        <time>2018-04-29T12:33:21Z</time>
      </trkpt>
      <trkpt lat="48.04481" lon="6.96708">
        <ele>1065.9259033203</ele>
        <time>2018-04-29T12:33:24Z</time>
      </trkpt>
      <trkpt lat="48.04493" lon="6.96695">
        <ele>1065.7166748047</ele>
        <time>2018-04-29T12:33:30Z</time>
      </trkpt>
      <trkpt lat="48.04512" lon="6.96633">
        <ele>1066.5404052734</ele>
        <time>2018-04-29T12:33:36Z</time>
      </trkpt>
      <trkpt lat="48.04514" lon="6.96506">
        <ele>1070.6047363281</ele>
        <time>2018-04-29T12:33:40Z</time>
      </trkpt>
      <trkpt lat="48.04507" lon="6.96438">
        <ele>1055.1693115234</ele>
        <time>2018-04-29T12:33:41Z</time>
      </trkpt>
      <trkpt lat="48.04487" lon="6.96388">
        <ele>1036.5843505859</ele>
        <time>2018-04-29T12:33:48Z</time>
      </trkpt>
      <trkpt lat="48.04474" lon="6.96358">
        <ele>1030.7503662109</ele>
        <time>2018-04-29T12:33:50Z</time>
      </trkpt>
      <trkpt lat="48.04461" lon="6.96335">
        <ele>1028.5947265625</ele>
        <time>2018-04-29T12:33:54Z</time>
      </trkpt>
      <trkpt lat="48.04448" lon="6.96317">
        <ele>1029.2307128906</ele>
        <time>2018-04-29T12:34:04Z</time>
      </trkpt>
      <trkpt lat="48.04432" lon="6.96303">
        <ele>1032.67578125</ele>
        <time>2018-04-29T12:34:10Z</time>
      </trkpt>
      <trkpt lat="48.04405" lon="6.96246">
        <ele>1036.93359375</ele>
        <time>2018-04-29T12:34:14Z</time>
      </trkpt>
      <trkpt lat="48.04399" lon="6.9622">
        <ele>1039.2141113281</ele>
        <time>2018-04-29T12:34:17Z</time>
      </trkpt>
      <trkpt lat="48.04399" lon="6.96191">
        <ele>1039.8792724609</ele>
        <time>2018-04-29T12:34:21Z</time>
      </trkpt>
      <trkpt lat="48.04401" lon="6.96126">
        <ele>1040.3276367188</ele>
        <time>2018-04-29T12:34:23Z</time>
      </trkpt>
      <trkpt lat="48.0439" lon="6.96066">
        <ele>1044.3699951172</ele>
        <time>2018-04-29T12:34:23Z</time>
      </trkpt>
      <trkpt lat="48.04362" lon="6.96013">
        <ele>1047.0026855469</ele>
        <time>2018-04-29T12:34:33Z</time>
      </trkpt>
      <trkpt lat="48.0432" lon="6.95968">
        <ele>1060.0303955078</ele>
        <time>2018-04-29T12:34:36Z</time>
      </trkpt>
      <trkpt lat="48.0429" lon="6.95942">
        <ele>1065.9483642578</ele>
        <time>2018-04-29T12:34:42Z</time>
      </trkpt>
      <trkpt lat="48.0426" lon="6.95923">
        <ele>1070.6811523438</ele>
        <time>2018-04-29T12:34:50Z</time>
      </trkpt>
      <trkpt lat="48.04237" lon="6.959">
        <ele>1070.2094726562</ele>
        <time>2018-04-29T12:35:00Z</time>
      </trkpt>
      <trkpt lat="48.04214" lon="6.95854">
        <ele>1057.7624511719</ele>
        <time>2018-04-29T12:35:04Z</time>
      </trkpt>
      <trkpt lat="48.04187" lon="6.95753">
        <ele>1046.7275390625</ele>
        <time>2018-04-29T12:35:12Z</time>
      </trkpt>
      <trkpt lat="48.04178" lon="6.95703">
        <ele>1046.96875</ele>
        <time>2018-04-29T12:35:14Z</time>
      </trkpt>
      <trkpt lat="48.04181" lon="6.95695">
        <ele>1045.5043945312</ele>
        <time>2018-04-29T12:35:17Z</time>
      </trkpt>
      <trkpt lat="48.04197" lon="6.95683">
        <ele>1039.0701904297</ele>
        <time>2018-04-29T12:35:19Z</time>
      </trkpt>
      <trkpt lat="48.04197" lon="6.95683">
        <ele>1039.0701904297</ele>
        <time>2018-04-29T12:35:24Z</time>
      </trkpt>
      <trkpt lat="48.04242" lon="6.95645">
        <ele>1025.271484375</ele>
        <time>2018-04-29T12:35:30Z</time>
      </trkpt>
      <trkpt lat="48.04255" lon="6.95622">
        <ele>1025.4887695312</ele>
        <time>2018-04-29T12:35:33Z</time>
      </trkpt>
      <trkpt lat="48.04259" lon="6.95619">
        <ele>1024.8322753906</ele>
        <time>2018-04-29T12:35:36Z</time>
      </trkpt>
      <trkpt lat="48.04299" lon="6.95609">
        <ele>1019.1588134766</ele>
        <time>2018-04-29T12:35:40Z</time>
      </trkpt>
      <trkpt lat="48.04415" lon="6.95598">
        <ele>999.22979736328</ele>
        <time>2018-04-29T12:35:44Z</time>
      </trkpt>
      <trkpt lat="48.04449" lon="6.95585">
        <ele>996.02416992188</ele>
        <time>2018-04-29T12:35:48Z</time>
      </trkpt>
      <trkpt lat="48.04471" lon="6.95565">
        <ele>996.06549072266</ele>
        <time>2018-04-29T12:35:55Z</time>
      </trkpt>
      <trkpt lat="48.04476" lon="6.95547">
        <ele>999.43377685547</ele>
        <time>2018-04-29T12:35:59Z</time>
      </trkpt>
      <trkpt lat="48.04478" lon="6.95472">
        <ele>1021.8952636719</ele>
        <time>2018-04-29T12:36:06Z</time>
      </trkpt>
      <trkpt lat="48.04483" lon="6.95399">
        <ele>1039.0570068359</ele>
        <time>2018-04-29T12:36:21Z</time>
      </trkpt>
      <trkpt lat="48.0449" lon="6.95372">
        <ele>1023.5883789062</ele>
        <time>2018-04-29T12:36:49Z</time>
      </trkpt>
      <trkpt lat="48.04515" lon="6.95311">
        <ele>1029.8963623047</ele>
        <time>2018-04-29T12:37:00Z</time>
      </trkpt>
      <trkpt lat="48.04526" lon="6.95205">
        <ele>1050.3524169922</ele>
        <time>2018-04-29T12:37:00Z</time>
      </trkpt>
      <trkpt lat="48.04548" lon="6.95108">
        <ele>1040.2008056641</ele>
        <time>2018-04-29T12:37:04Z</time>
      </trkpt>
      <trkpt lat="48.04583" lon="6.95036">
        <ele>1025.9248046875</ele>
        <time>2018-04-29T12:37:16Z</time>
      </trkpt>
      <trkpt lat="48.04625" lon="6.94941">
        <ele>1018.4757080078</ele>
        <time>2018-04-29T12:37:18Z</time>
      </trkpt>
      <trkpt lat="48.04667" lon="6.94884">
        <ele>1020.8396606445</ele>
        <time>2018-04-29T12:37:25Z</time>
      </trkpt>
      <trkpt lat="48.04729" lon="6.94805">
        <ele>1017.7404785156</ele>
        <time>2018-04-29T12:37:34Z</time>
      </trkpt>
      <trkpt lat="48.04761" lon="6.94772">
        <ele>1012.1594238281</ele>
        <time>2018-04-29T12:37:35Z</time>
      </trkpt>
      <trkpt lat="48.04795" lon="6.94748">
        <ele>1009.0147094727</ele>
        <time>2018-04-29T12:37:37Z</time>
      </trkpt>
      <trkpt lat="48.04837" lon="6.94716">
        <ele>1000.7008056641</ele>
        <time>2018-04-29T12:37:43Z</time>
      </trkpt>
      <trkpt lat="48.04875" lon="6.94681">
        <ele>992.71447753906</ele>
        <time>2018-04-29T12:38:02Z</time>
      </trkpt>
      <trkpt lat="48.04909" lon="6.94664">
        <ele>985.61987304688</ele>
        <time>2018-04-29T12:38:17Z</time>
      </trkpt>
      <trkpt lat="48.04958" lon="6.94645">
        <ele>969.93969726562</ele>
        <time>2018-04-29T12:38:18Z</time>
      </trkpt>
      <trkpt lat="48.0499" lon="6.94622">
        <ele>964.41979980469</ele>
        <time>2018-04-29T12:38:21Z</time>
      </trkpt>
      <trkpt lat="48.05009" lon="6.94595">
        <ele>962.396484375</ele>
        <time>2018-04-29T12:38:29Z</time>
      </trkpt>
      <trkpt lat="48.05025" lon="6.9455">
        <ele>955.46771240234</ele>
        <time>2018-04-29T12:38:40Z</time>
      </trkpt>
      <trkpt lat="48.05024" lon="6.94524">
        <ele>954.08251953125</ele>
        <time>2018-04-29T12:38:41Z</time>
      </trkpt>
      <trkpt lat="48.05013" lon="6.94528">
        <ele>956.69683837891</ele>
        <time>2018-04-29T12:38:51Z</time>
      </trkpt>
      <trkpt lat="48.05007" lon="6.94526">
        <ele>957.90594482422</ele>
        <time>2018-04-29T12:39:10Z</time>
      </trkpt>
      <trkpt lat="48.05004" lon="6.9452">
        <ele>958.66375732422</ele>
        <time>2018-04-29T12:39:19Z</time>
      </trkpt>
      <trkpt lat="48.05003" lon="6.94492">
        <ele>960.07794189453</ele>
        <time>2018-04-29T12:39:29Z</time>
      </trkpt>
      <trkpt lat="48.05003" lon="6.9446">
        <ele>961.7294921875</ele>
        <time>2018-04-29T12:39:29Z</time>
      </trkpt>
      <trkpt lat="48.04988" lon="6.9442">
        <ele>966.06628417969</ele>
        <time>2018-04-29T12:39:31Z</time>
      </trkpt>
      <trkpt lat="48.04952" lon="6.94365">
        <ele>977.28057861328</ele>
        <time>2018-04-29T12:39:34Z</time>
      </trkpt>
      <trkpt lat="48.0493" lon="6.94332">
        <ele>979.43487548828</ele>
        <time>2018-04-29T12:39:38Z</time>
      </trkpt>
      <trkpt lat="48.0491" lon="6.94309">
        <ele>983.87847900391</ele>
        <time>2018-04-29T12:39:44Z</time>
      </trkpt>
      <trkpt lat="48.04855" lon="6.94261">
        <ele>991.14239501953</ele>
        <time>2018-04-29T12:39:59Z</time>
      </trkpt>
      <trkpt lat="48.04787" lon="6.94201">
        <ele>1002.885925293</ele>
        <time>2018-04-29T12:40:18Z</time>
      </trkpt>
      <trkpt lat="48.04732" lon="6.94156">
        <ele>1011.2542114258</ele>
        <time>2018-04-29T12:40:29Z</time>
      </trkpt>
      <trkpt lat="48.04673" lon="6.94106">
        <ele>1022.6563720703</ele>
        <time>2018-04-29T12:40:44Z</time>
      </trkpt>
      <trkpt lat="48.04628" lon="6.94076">
        <ele>1029.0510253906</ele>
        <time>2018-04-29T12:40:52Z</time>
      </trkpt>
      <trkpt lat="48.04602" lon="6.94062">
        <ele>1031.3509521484</ele>
        <time>2018-04-29T12:40:58Z</time>
      </trkpt>
      <trkpt lat="48.04568" lon="6.94052">
        <ele>1037.9329833984</ele>
        <time>2018-04-29T12:41:02Z</time>
      </trkpt>
      <trkpt lat="48.04542" lon="6.94036">
        <ele>1042.1352539062</ele>
        <time>2018-04-29T12:41:05Z</time>
      </trkpt>
      <trkpt lat="48.04527" lon="6.94034">
        <ele>1041.7856445312</ele>
        <time>2018-04-29T12:41:08Z</time>
      </trkpt>
      <trkpt lat="48.04527" lon="6.94034">
        <ele>1041.7856445312</ele>
        <time>2018-04-29T12:41:11Z</time>
      </trkpt>
      <trkpt lat="48.04513" lon="6.94034">
        <ele>1044.2266845703</ele>
        <time>2018-04-29T12:41:11Z</time>
      </trkpt>
      <trkpt lat="48.04474" lon="6.94041">
        <ele>1045.5289306641</ele>
        <time>2018-04-29T12:41:13Z</time>
      </trkpt>
      <trkpt lat="48.04457" lon="6.94055">
        <ele>1045.5729980469</ele>
        <time>2018-04-29T12:41:16Z</time>
      </trkpt>
      <trkpt lat="48.0445" lon="6.94076">
        <ele>1047.9604492188</ele>
        <time>2018-04-29T12:41:20Z</time>
      </trkpt>
      <trkpt lat="48.0445" lon="6.94103">
        <ele>1052.2353515625</ele>
        <time>2018-04-29T12:41:23Z</time>
      </trkpt>
      <trkpt lat="48.04446" lon="6.94133">
        <ele>1056.9697265625</ele>
        <time>2018-04-29T12:41:29Z</time>
      </trkpt>
      <trkpt lat="48.04427" lon="6.94176">
        <ele>1062.2917480469</ele>
        <time>2018-04-29T12:41:29Z</time>
      </trkpt>
      <trkpt lat="48.04414" lon="6.94209">
        <ele>1065.0998535156</ele>
        <time>2018-04-29T12:41:36Z</time>
      </trkpt>
      <trkpt lat="48.0441" lon="6.94234">
        <ele>1068.0463867188</ele>
        <time>2018-04-29T12:41:43Z</time>
      </trkpt>
      <trkpt lat="48.04376" lon="6.94316">
        <ele>1076.2595214844</ele>
        <time>2018-04-29T12:41:49Z</time>
      </trkpt>
      <trkpt lat="48.04347" lon="6.94378">
        <ele>1080.8880615234</ele>
        <time>2018-04-29T12:41:52Z</time>
      </trkpt>
      <trkpt lat="48.04334" lon="6.94402">
        <ele>1080.9283447266</ele>
        <time>2018-04-29T12:42:02Z</time>
      </trkpt>
      <trkpt lat="48.04315" lon="6.94434">
        <ele>1086.8520507812</ele>
        <time>2018-04-29T12:42:08Z</time>
      </trkpt>
      <trkpt lat="48.04303" lon="6.94462">
        <ele>1091.7917480469</ele>
        <time>2018-04-29T12:42:11Z</time>
      </trkpt>
      <trkpt lat="48.04265" lon="6.94524">
        <ele>1097.4779052734</ele>
        <time>2018-04-29T12:42:14Z</time>
      </trkpt>
      <trkpt lat="48.04217" lon="6.94599">
        <ele>1105.4898681641</ele>
        <time>2018-04-29T12:42:25Z</time>
      </trkpt>
      <trkpt lat="48.04112" lon="6.9477">
        <ele>1123.0159912109</ele>
        <time>2018-04-29T12:42:34Z</time>
      </trkpt>
      <trkpt lat="48.04062" lon="6.9485">
        <ele>1129.6910400391</ele>
        <time>2018-04-29T12:42:37Z</time>
      </trkpt>
      <trkpt lat="48.04027" lon="6.94919">
        <ele>1131.8619384766</ele>
        <time>2018-04-29T12:42:37Z</time>
      </trkpt>
      <trkpt lat="48.03983" lon="6.94894">
        <ele>1126.0506591797</ele>
        <time>2018-04-29T12:42:47Z</time>
      </trkpt>
      <trkpt lat="48.03926" lon="6.94868">
        <ele>1126.0084228516</ele>
        <time>2018-04-29T12:42:52Z</time>
      </trkpt>
      <trkpt lat="48.03917" lon="6.94862">
        <ele>1124.8878173828</ele>
        <time>2018-04-29T12:42:55Z</time>
      </trkpt>
      <trkpt lat="48.03914" lon="6.94856">
        <ele>1124.2518310547</ele>
        <time>2018-04-29T12:43:00Z</time>
      </trkpt>
      <trkpt lat="48.03912" lon="6.94844">
        <ele>1124.9681396484</ele>
        <time>2018-04-29T12:43:06Z</time>
      </trkpt>
      <trkpt lat="48.03909" lon="6.948">
        <ele>1133.9929199219</ele>
        <time>2018-04-29T12:43:15Z</time>
      </trkpt>
      <trkpt lat="48.03907" lon="6.94761">
        <ele>1135.8990478516</ele>
        <time>2018-04-29T12:43:19Z</time>
      </trkpt>
      <trkpt lat="48.03909" lon="6.94742">
        <ele>1135.8210449219</ele>
        <time>2018-04-29T12:43:23Z</time>
      </trkpt>
      <trkpt lat="48.03913" lon="6.94708">
        <ele>1134.7393798828</ele>
        <time>2018-04-29T12:43:26Z</time>
      </trkpt>
      <trkpt lat="48.03909" lon="6.94668">
        <ele>1135.6594238281</ele>
        <time>2018-04-29T12:43:29Z</time>
      </trkpt>
      <trkpt lat="48.03891" lon="6.94563">
        <ele>1139.8674316406</ele>
        <time>2018-04-29T12:43:35Z</time>
      </trkpt>
      <trkpt lat="48.03883" lon="6.94518">
        <ele>1142.0511474609</ele>
        <time>2018-04-29T12:43:41Z</time>
      </trkpt>
      <trkpt lat="48.03883" lon="6.94463">
        <ele>1142.6174316406</ele>
        <time>2018-04-29T12:43:45Z</time>
      </trkpt>
      <trkpt lat="48.0388" lon="6.9445">
        <ele>1143.5178222656</ele>
        <time>2018-04-29T12:43:46Z</time>
      </trkpt>
      <trkpt lat="48.03874" lon="6.94439">
        <ele>1145.0697021484</ele>
        <time>2018-04-29T12:43:53Z</time>
      </trkpt>
      <trkpt lat="48.03858" lon="6.94418">
        <ele>1148.9125976562</ele>
        <time>2018-04-29T12:43:55Z</time>
      </trkpt>
      <trkpt lat="48.03843" lon="6.94407">
        <ele>1152.3104248047</ele>
        <time>2018-04-29T12:43:59Z</time>
      </trkpt>
      <trkpt lat="48.03826" lon="6.94403">
        <ele>1156.2338867188</ele>
        <time>2018-04-29T12:44:09Z</time>
      </trkpt>
      <trkpt lat="48.03789" lon="6.94403">
        <ele>1160.2784423828</ele>
        <time>2018-04-29T12:44:15Z</time>
      </trkpt>
      <trkpt lat="48.03764" lon="6.94407">
        <ele>1161.1016845703</ele>
        <time>2018-04-29T12:44:19Z</time>
      </trkpt>
      <trkpt lat="48.03745" lon="6.94417">
        <ele>1162.5379638672</ele>
        <time>2018-04-29T12:44:22Z</time>
      </trkpt>
      <trkpt lat="48.03716" lon="6.94437">
        <ele>1162.6514892578</ele>
        <time>2018-04-29T12:44:26Z</time>
      </trkpt>
      <trkpt lat="48.03678" lon="6.94467">
        <ele>1164.2254638672</ele>
        <time>2018-04-29T12:44:28Z</time>
      </trkpt>
      <trkpt lat="48.03625" lon="6.94509">
        <ele>1167.2595214844</ele>
        <time>2018-04-29T12:44:28Z</time>
      </trkpt>
      <trkpt lat="48.03609" lon="6.94515">
        <ele>1167.1940917969</ele>
        <time>2018-04-29T12:44:38Z</time>
      </trkpt>
      <trkpt lat="48.03595" lon="6.94516">
        <ele>1166.8129882812</ele>
        <time>2018-04-29T12:44:41Z</time>
      </trkpt>
      <trkpt lat="48.03576" lon="6.94506">
        <ele>1166.1960449219</ele>
        <time>2018-04-29T12:44:47Z</time>
      </trkpt>
      <trkpt lat="48.03537" lon="6.94472">
        <ele>1164.2390136719</ele>
        <time>2018-04-29T12:44:55Z</time>
      </trkpt>
      <trkpt lat="48.03536" lon="6.94471">
        <ele>1164.2183837891</ele>
        <time>2018-04-29T12:45:05Z</time>
      </trkpt>
      <trkpt lat="48.03536" lon="6.94471">
        <ele>1164.2183837891</ele>
        <time>2018-04-29T12:45:09Z</time>
      </trkpt>
      <trkpt lat="48.03518" lon="6.94459">
        <ele>1164.9792480469</ele>
        <time>2018-04-29T12:45:17Z</time>
      </trkpt>
      <trkpt lat="48.035" lon="6.94442">
        <ele>1165.0172119141</ele>
        <time>2018-04-29T12:45:19Z</time>
      </trkpt>
      <trkpt lat="48.03476" lon="6.94426">
        <ele>1165.1331787109</ele>
        <time>2018-04-29T12:45:22Z</time>
      </trkpt>
      <trkpt lat="48.03455" lon="6.94409">
        <ele>1165.5603027344</ele>
        <time>2018-04-29T12:45:24Z</time>
      </trkpt>
      <trkpt lat="48.03432" lon="6.94387">
        <ele>1165.3559570312</ele>
        <time>2018-04-29T12:45:29Z</time>
      </trkpt>
      <trkpt lat="48.03416" lon="6.94367">
        <ele>1164.6496582031</ele>
        <time>2018-04-29T12:45:35Z</time>
      </trkpt>
      <trkpt lat="48.03406" lon="6.94334">
        <ele>1162.3763427734</ele>
        <time>2018-04-29T12:45:38Z</time>
      </trkpt>
      <trkpt lat="48.03392" lon="6.94313">
        <ele>1160.4870605469</ele>
        <time>2018-04-29T12:45:41Z</time>
      </trkpt>
      <trkpt lat="48.03343" lon="6.9427">
        <ele>1157.740234375</ele>
        <time>2018-04-29T12:45:45Z</time>
      </trkpt>
      <trkpt lat="48.03264" lon="6.94202">
        <ele>1152.49609375</ele>
        <time>2018-04-29T12:45:49Z</time>
      </trkpt>
      <trkpt lat="48.03257" lon="6.9419">
        <ele>1150.5419921875</ele>
        <time>2018-04-29T12:45:53Z</time>
      </trkpt>
      <trkpt lat="48.03255" lon="6.94184">
        <ele>1150.5548095703</ele>
        <time>2018-04-29T12:46:00Z</time>
      </trkpt>
      <trkpt lat="48.03253" lon="6.9419">
        <ele>1151.0354003906</ele>
        <time>2018-04-29T12:46:04Z</time>
      </trkpt>
      <trkpt lat="48.03222" lon="6.94191">
        <ele>1157.5444335938</ele>
        <time>2018-04-29T12:46:11Z</time>
      </trkpt>
      <trkpt lat="48.03213" lon="6.94195">
        <ele>1159.3270263672</ele>
        <time>2018-04-29T12:46:26Z</time>
      </trkpt>
      <trkpt lat="48.032" lon="6.94211">
        <ele>1161.6550292969</ele>
        <time>2018-04-29T12:46:54Z</time>
      </trkpt>
      <trkpt lat="48.03181" lon="6.94263">
        <ele>1165.4451904297</ele>
        <time>2018-04-29T12:47:05Z</time>
      </trkpt>
      <trkpt lat="48.0313" lon="6.94435">
        <ele>1173.2722167969</ele>
        <time>2018-04-29T12:47:05Z</time>
      </trkpt>
      <trkpt lat="48.03122" lon="6.94479">
        <ele>1174.6981201172</ele>
        <time>2018-04-29T12:47:16Z</time>
      </trkpt>
      <trkpt lat="48.03122" lon="6.94575">
        <ele>1177.0362548828</ele>
        <time>2018-04-29T12:47:20Z</time>
      </trkpt>
      <trkpt lat="48.03117" lon="6.94573">
        <ele>1177.2054443359</ele>
        <time>2018-04-29T12:47:28Z</time>
      </trkpt>
      <trkpt lat="48.03117" lon="6.94573">
        <ele>1177.2054443359</ele>
        <time>2018-04-29T12:47:30Z</time>
      </trkpt>
      <trkpt lat="48.03109" lon="6.94567">
        <ele>1177.2980957031</ele>
        <time>2018-04-29T12:47:33Z</time>
      </trkpt>
      <trkpt lat="48.03076" lon="6.94516">
        <ele>1173.9833984375</ele>
        <time>2018-04-29T12:47:40Z</time>
      </trkpt>
      <trkpt lat="48.03037" lon="6.94467">
        <ele>1163.7253417969</ele>
        <time>2018-04-29T12:47:53Z</time>
      </trkpt>
      <trkpt lat="48.02964" lon="6.94392">
        <ele>1150.5933837891</ele>
        <time>2018-04-29T12:47:55Z</time>
      </trkpt>
      <trkpt lat="48.02878" lon="6.94308">
        <ele>1124.5343017578</ele>
        <time>2018-04-29T12:47:55Z</time>
      </trkpt>
      <trkpt lat="48.0283" lon="6.94257">
        <ele>1120.8272705078</ele>
        <time>2018-04-29T12:47:59Z</time>
      </trkpt>
      <trkpt lat="48.02797" lon="6.94225">
        <ele>1127.0412597656</ele>
        <time>2018-04-29T12:48:11Z</time>
      </trkpt>
      <trkpt lat="48.02797" lon="6.94225">
        <ele>1127.0412597656</ele>
        <time>2018-04-29T12:48:13Z</time>
      </trkpt>
      <trkpt lat="48.02515" lon="6.93953">
        <ele>1156.46484375</ele>
        <time>2018-04-29T12:48:20Z</time>
      </trkpt>
      <trkpt lat="48.02434" lon="6.93862">
        <ele>1153.5017089844</ele>
        <time>2018-04-29T12:48:29Z</time>
      </trkpt>
      <trkpt lat="48.02386" lon="6.93825">
        <ele>1146.4327392578</ele>
        <time>2018-04-29T12:48:30Z</time>
      </trkpt>
      <trkpt lat="48.02344" lon="6.93765">
        <ele>1139.44921875</ele>
        <time>2018-04-29T12:48:32Z</time>
      </trkpt>
      <trkpt lat="48.02303" lon="6.937">
        <ele>1130.0358886719</ele>
        <time>2018-04-29T12:48:38Z</time>
      </trkpt>
      <trkpt lat="48.02289" lon="6.93683">
        <ele>1129.7434082031</ele>
        <time>2018-04-29T12:48:57Z</time>
      </trkpt>
      <trkpt lat="48.02278" lon="6.93665">
        <ele>1128.4311523438</ele>
        <time>2018-04-29T12:49:12Z</time>
      </trkpt>
      <trkpt lat="48.02274" lon="6.93649">
        <ele>1127.7906494141</ele>
        <time>2018-04-29T12:49:13Z</time>
      </trkpt>
      <trkpt lat="48.02242" lon="6.93612">
        <ele>1125.9301757812</ele>
        <time>2018-04-29T12:49:16Z</time>
      </trkpt>
      <trkpt lat="48.02186" lon="6.93521">
        <ele>1125.9699707031</ele>
        <time>2018-04-29T12:49:24Z</time>
      </trkpt>
      <trkpt lat="48.02134" lon="6.93433">
        <ele>1117.9816894531</ele>
        <time>2018-04-29T12:49:35Z</time>
      </trkpt>
      <trkpt lat="48.0212" lon="6.93407">
        <ele>1118.1318359375</ele>
        <time>2018-04-29T12:49:36Z</time>
      </trkpt>
      <trkpt lat="48.02077" lon="6.93374">
        <ele>1112.8797607422</ele>
        <time>2018-04-29T12:49:46Z</time>
      </trkpt>
      <trkpt lat="48.02003" lon="6.93321">
        <ele>1103.9274902344</ele>
        <time>2018-04-29T12:50:05Z</time>
      </trkpt>
      <trkpt lat="48.01949" lon="6.93276">
        <ele>1100.3413085938</ele>
        <time>2018-04-29T12:50:14Z</time>
      </trkpt>
      <trkpt lat="48.01937" lon="6.93271">
        <ele>1099.0916748047</ele>
        <time>2018-04-29T12:50:24Z</time>
      </trkpt>
      <trkpt lat="48.01896" lon="6.93261">
        <ele>1094.1236572266</ele>
        <time>2018-04-29T12:50:24Z</time>
      </trkpt>
      <trkpt lat="48.01871" lon="6.93253">
        <ele>1092.2346191406</ele>
        <time>2018-04-29T12:50:26Z</time>
      </trkpt>
      <trkpt lat="48.01804" lon="6.93227">
        <ele>1087.6307373047</ele>
        <time>2018-04-29T12:50:29Z</time>
      </trkpt>
      <trkpt lat="48.01735" lon="6.93205">
        <ele>1079.7579345703</ele>
        <time>2018-04-29T12:50:33Z</time>
      </trkpt>
      <trkpt lat="48.01725" lon="6.93198">
        <ele>1078.8514404297</ele>
        <time>2018-04-29T12:50:39Z</time>
      </trkpt>
      <trkpt lat="48.01718" lon="6.93189">
        <ele>1078.4584960938</ele>
        <time>2018-04-29T12:50:54Z</time>
      </trkpt>
      <trkpt lat="48.01714" lon="6.93176">
        <ele>1078.6644287109</ele>
        <time>2018-04-29T12:51:13Z</time>
      </trkpt>
      <trkpt lat="48.01707" lon="6.93137">
        <ele>1079.4609375</ele>
        <time>2018-04-29T12:51:24Z</time>
      </trkpt>
      <trkpt lat="48.01692" lon="6.93058">
        <ele>1080.2528076172</ele>
        <time>2018-04-29T12:51:39Z</time>
      </trkpt>
      <trkpt lat="48.01685" lon="6.93033">
        <ele>1080.8305664062</ele>
        <time>2018-04-29T12:51:47Z</time>
      </trkpt>
      <trkpt lat="48.01681" lon="6.93004">
        <ele>1080.5395507812</ele>
        <time>2018-04-29T12:51:53Z</time>
      </trkpt>
      <trkpt lat="48.0168" lon="6.92986">
        <ele>1080.7060546875</ele>
        <time>2018-04-29T12:51:57Z</time>
      </trkpt>
      <trkpt lat="48.01693" lon="6.93005">
        <ele>1082.0711669922</ele>
        <time>2018-04-29T12:52:00Z</time>
      </trkpt>
      <trkpt lat="48.01693" lon="6.93005">
        <ele>1082.0711669922</ele>
        <time>2018-04-29T12:52:03Z</time>
      </trkpt>
      <trkpt lat="48.0168" lon="6.92986">
        <ele>1080.7060546875</ele>
        <time>2018-04-29T12:52:06Z</time>
      </trkpt>
      <trkpt lat="48.01668" lon="6.92974">
        <ele>1079.9084472656</ele>
        <time>2018-04-29T12:52:06Z</time>
      </trkpt>
      <trkpt lat="48.01668" lon="6.93016">
        <ele>1078.1643066406</ele>
        <time>2018-04-29T12:52:08Z</time>
      </trkpt>
      <trkpt lat="48.01664" lon="6.93069">
        <ele>1075.1793212891</ele>
        <time>2018-04-29T12:52:11Z</time>
      </trkpt>
      <trkpt lat="48.01658" lon="6.93094">
        <ele>1073.6906738281</ele>
        <time>2018-04-29T12:52:15Z</time>
      </trkpt>
      <trkpt lat="48.01641" lon="6.93175">
        <ele>1069.0321044922</ele>
        <time>2018-04-29T12:52:18Z</time>
      </trkpt>
      <trkpt lat="48.01624" lon="6.93228">
        <ele>1065.2271728516</ele>
        <time>2018-04-29T12:52:24Z</time>
      </trkpt>
      <trkpt lat="48.01616" lon="6.9327">
        <ele>1063.6519775391</ele>
        <time>2018-04-29T12:52:24Z</time>
      </trkpt>
      <trkpt lat="48.01613" lon="6.93301">
        <ele>1063.2344970703</ele>
        <time>2018-04-29T12:52:31Z</time>
      </trkpt>
      <trkpt lat="48.01616" lon="6.93317">
        <ele>1064.5924072266</ele>
        <time>2018-04-29T12:52:38Z</time>
      </trkpt>
      <trkpt lat="48.01622" lon="6.93328">
        <ele>1066.1658935547</ele>
        <time>2018-04-29T12:52:44Z</time>
      </trkpt>
      <trkpt lat="48.0163" lon="6.93338">
        <ele>1066.3604736328</ele>
        <time>2018-04-29T12:52:47Z</time>
      </trkpt>
      <trkpt lat="48.01635" lon="6.93341">
        <ele>1067.1456298828</ele>
        <time>2018-04-29T12:52:57Z</time>
      </trkpt>
      <trkpt lat="48.01659" lon="6.93341">
        <ele>1067.2064208984</ele>
        <time>2018-04-29T12:53:03Z</time>
      </trkpt>
      <trkpt lat="48.01688" lon="6.9335">
        <ele>1060.6782226562</ele>
        <time>2018-04-29T12:53:06Z</time>
      </trkpt>
      <trkpt lat="48.01716" lon="6.93352">
        <ele>1058.3659667969</ele>
        <time>2018-04-29T12:53:09Z</time>
      </trkpt>
      <trkpt lat="48.01743" lon="6.93359">
        <ele>1055.4326171875</ele>
        <time>2018-04-29T12:53:20Z</time>
      </trkpt>
      <trkpt lat="48.01764" lon="6.93364">
        <ele>1053.7723388672</ele>
        <time>2018-04-29T12:53:29Z</time>
      </trkpt>
      <trkpt lat="48.0178" lon="6.93374">
        <ele>1052.6422119141</ele>
        <time>2018-04-29T12:53:32Z</time>
      </trkpt>
      <trkpt lat="48.01796" lon="6.93384">
        <ele>1053.5046386719</ele>
        <time>2018-04-29T12:53:32Z</time>
      </trkpt>
      <trkpt lat="48.01817" lon="6.93405">
        <ele>1051.5291748047</ele>
        <time>2018-04-29T12:53:42Z</time>
      </trkpt>
      <trkpt lat="48.01847" lon="6.93437">
        <ele>1046.4499511719</ele>
        <time>2018-04-29T12:53:47Z</time>
      </trkpt>
      <trkpt lat="48.0187" lon="6.93457">
        <ele>1044.6766357422</ele>
        <time>2018-04-29T12:53:50Z</time>
      </trkpt>
      <trkpt lat="48.01885" lon="6.93466">
        <ele>1044.4176025391</ele>
        <time>2018-04-29T12:53:55Z</time>
      </trkpt>
      <trkpt lat="48.01897" lon="6.93486">
        <ele>1037.7994384766</ele>
        <time>2018-04-29T12:54:01Z</time>
      </trkpt>
      <trkpt lat="48.01904" lon="6.93502">
        <ele>1034.2387695312</ele>
        <time>2018-04-29T12:54:10Z</time>
      </trkpt>
      <trkpt lat="48.01929" lon="6.93545">
        <ele>1031.0943603516</ele>
        <time>2018-04-29T12:54:14Z</time>
      </trkpt>
      <trkpt lat="48.01978" lon="6.93622">
        <ele>1023.2478027344</ele>
        <time>2018-04-29T12:54:18Z</time>
      </trkpt>
      <trkpt lat="48.01978" lon="6.93622">
        <ele>1023.2478027344</ele>
        <time>2018-04-29T12:54:21Z</time>
      </trkpt>
      <trkpt lat="48.01991" lon="6.93643">
        <ele>1021.6143188477</ele>
        <time>2018-04-29T12:54:24Z</time>
      </trkpt>
      <trkpt lat="48.01994" lon="6.93669">
        <ele>1017.0790405273</ele>
        <time>2018-04-29T12:54:30Z</time>
      </trkpt>
      <trkpt lat="48.0199" lon="6.93714">
        <ele>1010.5391235352</ele>
        <time>2018-04-29T12:54:36Z</time>
      </trkpt>
      <trkpt lat="48.01983" lon="6.93749">
        <ele>1008.0745849609</ele>
        <time>2018-04-29T12:54:40Z</time>
      </trkpt>
      <trkpt lat="48.01981" lon="6.93768">
        <ele>1008.6094360352</ele>
        <time>2018-04-29T12:54:41Z</time>
      </trkpt>
      <trkpt lat="48.01984" lon="6.93823">
        <ele>1006.3583984375</ele>
        <time>2018-04-29T12:54:48Z</time>
      </trkpt>
      <trkpt lat="48.01983" lon="6.93894">
        <ele>1001.4108276367</ele>
        <time>2018-04-29T12:54:50Z</time>
      </trkpt>
      <trkpt lat="48.01989" lon="6.93954">
        <ele>995.14166259766</ele>
        <time>2018-04-29T12:54:54Z</time>
      </trkpt>
      <trkpt lat="48.01982" lon="6.93977">
        <ele>993.14660644531</ele>
        <time>2018-04-29T12:55:04Z</time>
      </trkpt>
      <trkpt lat="48.01975" lon="6.93989">
        <ele>988.64129638672</ele>
        <time>2018-04-29T12:55:10Z</time>
      </trkpt>
      <trkpt lat="48.01974" lon="6.94001">
        <ele>986.86639404297</ele>
        <time>2018-04-29T12:55:14Z</time>
      </trkpt>
      <trkpt lat="48.01984" lon="6.94042">
        <ele>984.97833251953</ele>
        <time>2018-04-29T12:55:17Z</time>
      </trkpt>
      <trkpt lat="48.02001" lon="6.94076">
        <ele>982.79107666016</ele>
        <time>2018-04-29T12:55:21Z</time>
      </trkpt>
      <trkpt lat="48.02014" lon="6.94095">
        <ele>985.02587890625</ele>
        <time>2018-04-29T12:55:23Z</time>
      </trkpt>
      <trkpt lat="48.02017" lon="6.94104">
        <ele>983.48913574219</ele>
        <time>2018-04-29T12:55:23Z</time>
      </trkpt>
      <trkpt lat="48.0202" lon="6.94126">
        <ele>980.62750244141</ele>
        <time>2018-04-29T12:55:33Z</time>
      </trkpt>
      <trkpt lat="48.0203" lon="6.94172">
        <ele>973.05218505859</ele>
        <time>2018-04-29T12:55:36Z</time>
      </trkpt>
      <trkpt lat="48.0204" lon="6.94189">
        <ele>971.35931396484</ele>
        <time>2018-04-29T12:55:42Z</time>
      </trkpt>
      <trkpt lat="48.02051" lon="6.942">
        <ele>971.10723876953</ele>
        <time>2018-04-29T12:55:50Z</time>
      </trkpt>
      <trkpt lat="48.02059" lon="6.9421">
        <ele>969.36553955078</ele>
        <time>2018-04-29T12:56:00Z</time>
      </trkpt>
      <trkpt lat="48.0206" lon="6.94218">
        <ele>966.79711914062</ele>
        <time>2018-04-29T12:56:04Z</time>
      </trkpt>
      <trkpt lat="48.02055" lon="6.94251">
        <ele>967.47991943359</ele>
        <time>2018-04-29T12:56:12Z</time>
      </trkpt>
      <trkpt lat="48.02053" lon="6.94289">
        <ele>963.73168945312</ele>
        <time>2018-04-29T12:56:14Z</time>
      </trkpt>
      <trkpt lat="48.02052" lon="6.94339">
        <ele>958.7734375</ele>
        <time>2018-04-29T12:56:17Z</time>
      </trkpt>
      <trkpt lat="48.02064" lon="6.94402">
        <ele>949.05432128906</ele>
        <time>2018-04-29T12:56:19Z</time>
      </trkpt>
      <trkpt lat="48.02076" lon="6.94432">
        <ele>944.85870361328</ele>
        <time>2018-04-29T12:56:24Z</time>
      </trkpt>
      <trkpt lat="48.02098" lon="6.94477">
        <ele>942.64172363281</ele>
        <time>2018-04-29T12:56:30Z</time>
      </trkpt>
      <trkpt lat="48.02128" lon="6.94521">
        <ele>934.19274902344</ele>
        <time>2018-04-29T12:56:33Z</time>
      </trkpt>
      <trkpt lat="48.02143" lon="6.94539">
        <ele>930.38665771484</ele>
        <time>2018-04-29T12:56:36Z</time>
      </trkpt>
      <trkpt lat="48.02156" lon="6.9455">
        <ele>928.416015625</ele>
        <time>2018-04-29T12:56:40Z</time>
      </trkpt>
      <trkpt lat="48.02169" lon="6.94559">
        <ele>926.57501220703</ele>
        <time>2018-04-29T12:56:44Z</time>
      </trkpt>
      <trkpt lat="48.02179" lon="6.94563">
        <ele>925.99145507812</ele>
        <time>2018-04-29T12:56:48Z</time>
      </trkpt>
      <trkpt lat="48.02204" lon="6.94573">
        <ele>927.53717041016</ele>
        <time>2018-04-29T12:56:55Z</time>
      </trkpt>
      <trkpt lat="48.02259" lon="6.94611">
        <ele>918.42803955078</ele>
        <time>2018-04-29T12:56:59Z</time>
      </trkpt>
      <trkpt lat="48.0228" lon="6.94627">
        <ele>915.07244873047</ele>
        <time>2018-04-29T12:57:06Z</time>
      </trkpt>
      <trkpt lat="48.023" lon="6.94648">
        <ele>911.53936767578</ele>
        <time>2018-04-29T12:57:21Z</time>
      </trkpt>
      <trkpt lat="48.02319" lon="6.94671">
        <ele>906.7978515625</ele>
        <time>2018-04-29T12:57:49Z</time>
      </trkpt>
      <trkpt lat="48.02366" lon="6.94731">
        <ele>893.68096923828</ele>
        <time>2018-04-29T12:58:00Z</time>
      </trkpt>
      <trkpt lat="48.02372" lon="6.94734">
        <ele>893.25744628906</ele>
        <time>2018-04-29T12:58:00Z</time>
      </trkpt>
      <trkpt lat="48.02379" lon="6.94734">
        <ele>893.34613037109</ele>
        <time>2018-04-29T12:58:11Z</time>
      </trkpt>
      <trkpt lat="48.02387" lon="6.94723">
        <ele>895.13952636719</ele>
        <time>2018-04-29T12:58:15Z</time>
      </trkpt>
      <trkpt lat="48.02392" lon="6.94707">
        <ele>897.5908203125</ele>
        <time>2018-04-29T12:58:23Z</time>
      </trkpt>
      <trkpt lat="48.02402" lon="6.94688">
        <ele>900.15899658203</ele>
        <time>2018-04-29T12:58:25Z</time>
      </trkpt>
      <trkpt lat="48.0242" lon="6.94677">
        <ele>900.49053955078</ele>
        <time>2018-04-29T12:58:28Z</time>
      </trkpt>
      <trkpt lat="48.02434" lon="6.94673">
        <ele>897.74182128906</ele>
        <time>2018-04-29T12:58:35Z</time>
      </trkpt>
      <trkpt lat="48.02448" lon="6.9468">
        <ele>895.27770996094</ele>
        <time>2018-04-29T12:58:48Z</time>
      </trkpt>
      <trkpt lat="48.02459" lon="6.94682">
        <ele>894.44152832031</ele>
        <time>2018-04-29T12:58:50Z</time>
      </trkpt>
      <trkpt lat="48.0248" lon="6.94684">
        <ele>895.65380859375</ele>
        <time>2018-04-29T12:58:50Z</time>
      </trkpt>
      <trkpt lat="48.02487" lon="6.94691">
        <ele>895.96746826172</ele>
        <time>2018-04-29T12:58:59Z</time>
      </trkpt>
      <trkpt lat="48.02493" lon="6.94719">
        <ele>893.67620849609</ele>
        <time>2018-04-29T12:59:05Z</time>
      </trkpt>
      <trkpt lat="48.02508" lon="6.94798">
        <ele>894.81622314453</ele>
        <time>2018-04-29T12:59:11Z</time>
      </trkpt>
      <trkpt lat="48.02511" lon="6.94849">
        <ele>894.45281982422</ele>
        <time>2018-04-29T12:59:20Z</time>
      </trkpt>
      <trkpt lat="48.02507" lon="6.94864">
        <ele>893.17266845703</ele>
        <time>2018-04-29T12:59:29Z</time>
      </trkpt>
      <trkpt lat="48.02501" lon="6.94875">
        <ele>889.80914306641</ele>
        <time>2018-04-29T12:59:38Z</time>
      </trkpt>
      <trkpt lat="48.02476" lon="6.94917">
        <ele>884.7158203125</ele>
        <time>2018-04-29T12:59:42Z</time>
      </trkpt>
      <trkpt lat="48.02465" lon="6.94943">
        <ele>883.37896728516</ele>
        <time>2018-04-29T12:59:42Z</time>
      </trkpt>
      <trkpt lat="48.02461" lon="6.94965">
        <ele>882.11682128906</ele>
        <time>2018-04-29T12:59:46Z</time>
      </trkpt>
      <trkpt lat="48.02459" lon="6.94986">
        <ele>880.63275146484</ele>
        <time>2018-04-29T12:59:58Z</time>
      </trkpt>
      <trkpt lat="48.02461" lon="6.95035">
        <ele>879.64593505859</ele>
        <time>2018-04-29T13:00:00Z</time>
      </trkpt>
      <trkpt lat="48.02466" lon="6.95075">
        <ele>877.09051513672</ele>
        <time>2018-04-29T13:00:07Z</time>
      </trkpt>
      <trkpt lat="48.02473" lon="6.95105">
        <ele>873.18957519531</ele>
        <time>2018-04-29T13:00:16Z</time>
      </trkpt>
      <trkpt lat="48.0248" lon="6.95123">
        <ele>871.05230712891</ele>
        <time>2018-04-29T13:00:17Z</time>
      </trkpt>
      <trkpt lat="48.02495" lon="6.95152">
        <ele>868.01550292969</ele>
        <time>2018-04-29T13:00:19Z</time>
      </trkpt>
      <trkpt lat="48.02518" lon="6.9519">
        <ele>862.818359375</ele>
        <time>2018-04-29T13:00:25Z</time>
      </trkpt>
      <trkpt lat="48.02532" lon="6.95203">
        <ele>861.94116210938</ele>
        <time>2018-04-29T13:00:44Z</time>
      </trkpt>
      <trkpt lat="48.02542" lon="6.9521">
        <ele>861.86901855469</ele>
        <time>2018-04-29T13:00:59Z</time>
      </trkpt>
      <trkpt lat="48.02549" lon="6.9522">
        <ele>861.56408691406</ele>
        <time>2018-04-29T13:01:00Z</time>
      </trkpt>
      <trkpt lat="48.02547" lon="6.95229">
        <ele>860.62542724609</ele>
        <time>2018-04-29T13:01:03Z</time>
      </trkpt>
      <trkpt lat="48.02569" lon="6.95235">
        <ele>873.46380615234</ele>
        <time>2018-04-29T13:01:11Z</time>
      </trkpt>
      <trkpt lat="48.02581" lon="6.95239">
        <ele>878.71124267578</ele>
        <time>2018-04-29T13:01:22Z</time>
      </trkpt>
      <trkpt lat="48.02581" lon="6.95239">
        <ele>878.71124267578</ele>
        <time>2018-04-29T13:01:23Z</time>
      </trkpt>
      <trkpt lat="48.02608" lon="6.95252">
        <ele>888.3232421875</ele>
        <time>2018-04-29T13:01:33Z</time>
      </trkpt>
      <trkpt lat="48.02626" lon="6.95265">
        <ele>890.47717285156</ele>
        <time>2018-04-29T13:01:52Z</time>
      </trkpt>
      <trkpt lat="48.02674" lon="6.95291">
        <ele>892.18664550781</ele>
        <time>2018-04-29T13:02:01Z</time>
      </trkpt>
      <trkpt lat="48.02684" lon="6.95294">
        <ele>891.71697998047</ele>
        <time>2018-04-29T13:02:11Z</time>
      </trkpt>
      <trkpt lat="48.02693" lon="6.95291">
        <ele>892.61163330078</ele>
        <time>2018-04-29T13:02:11Z</time>
      </trkpt>
      <trkpt lat="48.02698" lon="6.95289">
        <ele>893.22857666016</ele>
        <time>2018-04-29T13:02:13Z</time>
      </trkpt>
      <trkpt lat="48.02731" lon="6.95294">
        <ele>893.17602539062</ele>
        <time>2018-04-29T13:02:16Z</time>
      </trkpt>
      <trkpt lat="48.02763" lon="6.95308">
        <ele>897.44738769531</ele>
        <time>2018-04-29T13:02:20Z</time>
      </trkpt>
      <trkpt lat="48.0278" lon="6.95318">
        <ele>899.52758789062</ele>
        <time>2018-04-29T13:02:26Z</time>
      </trkpt>
      <trkpt lat="48.02797" lon="6.95332">
        <ele>901.78161621094</ele>
        <time>2018-04-29T13:02:41Z</time>
      </trkpt>
      <trkpt lat="48.02816" lon="6.95351">
        <ele>904.07916259766</ele>
        <time>2018-04-29T13:03:00Z</time>
      </trkpt>
      <trkpt lat="48.02848" lon="6.95404">
        <ele>910.10803222656</ele>
        <time>2018-04-29T13:03:11Z</time>
      </trkpt>
      <trkpt lat="48.02892" lon="6.9548">
        <ele>916.65991210938</ele>
        <time>2018-04-29T13:03:26Z</time>
      </trkpt>
      <trkpt lat="48.02907" lon="6.95494">
        <ele>918.13507080078</ele>
        <time>2018-04-29T13:03:34Z</time>
      </trkpt>
      <trkpt lat="48.02929" lon="6.95505">
        <ele>917.31658935547</ele>
        <time>2018-04-29T13:03:40Z</time>
      </trkpt>
      <trkpt lat="48.02929" lon="6.95505">
        <ele>917.31658935547</ele>
        <time>2018-04-29T13:03:44Z</time>
      </trkpt>
      <trkpt lat="48.0294" lon="6.95509">
        <ele>916.46673583984</ele>
        <time>2018-04-29T13:03:47Z</time>
      </trkpt>
      <trkpt lat="48.02947" lon="6.9551">
        <ele>915.75537109375</ele>
        <time>2018-04-29T13:03:50Z</time>
      </trkpt>
      <trkpt lat="48.02951" lon="6.95507">
        <ele>915.03527832031</ele>
        <time>2018-04-29T13:03:53Z</time>
      </trkpt>
      <trkpt lat="48.02965" lon="6.95501">
        <ele>915.02746582031</ele>
        <time>2018-04-29T13:03:53Z</time>
      </trkpt>
      <trkpt lat="48.0298" lon="6.95488">
        <ele>920.53442382812</ele>
        <time>2018-04-29T13:03:55Z</time>
      </trkpt>
      <trkpt lat="48.02997" lon="6.95478">
        <ele>923.39514160156</ele>
        <time>2018-04-29T13:03:58Z</time>
      </trkpt>
      <trkpt lat="48.03005" lon="6.95477">
        <ele>923.94488525391</ele>
        <time>2018-04-29T13:04:02Z</time>
      </trkpt>
      <trkpt lat="48.03016" lon="6.95481">
        <ele>923.71960449219</ele>
        <time>2018-04-29T13:04:05Z</time>
      </trkpt>
      <trkpt lat="48.03023" lon="6.95482">
        <ele>923.75897216797</ele>
        <time>2018-04-29T13:04:11Z</time>
      </trkpt>
      <trkpt lat="48.03028" lon="6.95478">
        <ele>924.59436035156</ele>
        <time>2018-04-29T13:04:11Z</time>
      </trkpt>
      <trkpt lat="48.03045" lon="6.9544">
        <ele>931.07366943359</ele>
        <time>2018-04-29T13:04:18Z</time>
      </trkpt>
      <trkpt lat="48.03052" lon="6.95426">
        <ele>933.57580566406</ele>
        <time>2018-04-29T13:04:25Z</time>
      </trkpt>
      <trkpt lat="48.03056" lon="6.95419">
        <ele>934.86376953125</ele>
        <time>2018-04-29T13:04:31Z</time>
      </trkpt>
      <trkpt lat="48.03081" lon="6.95396">
        <ele>938.19732666016</ele>
        <time>2018-04-29T13:04:34Z</time>
      </trkpt>
      <trkpt lat="48.03096" lon="6.95378">
        <ele>940.89801025391</ele>
        <time>2018-04-29T13:04:44Z</time>
      </trkpt>
      <trkpt lat="48.03107" lon="6.95352">
        <ele>944.79571533203</ele>
        <time>2018-04-29T13:04:50Z</time>
      </trkpt>
      <trkpt lat="48.03123" lon="6.95316">
        <ele>949.55120849609</ele>
        <time>2018-04-29T13:04:53Z</time>
      </trkpt>
      <trkpt lat="48.03128" lon="6.95309">
        <ele>951.00897216797</ele>
        <time>2018-04-29T13:04:56Z</time>
      </trkpt>
      <trkpt lat="48.03138" lon="6.95303">
        <ele>952.26647949219</ele>
        <time>2018-04-29T13:05:07Z</time>
      </trkpt>
      <trkpt lat="48.03163" lon="6.95295">
        <ele>950.51873779297</ele>
        <time>2018-04-29T13:05:16Z</time>
      </trkpt>
      <trkpt lat="48.03184" lon="6.95293">
        <ele>951.64801025391</ele>
        <time>2018-04-29T13:05:19Z</time>
      </trkpt>
      <trkpt lat="48.03199" lon="6.95299">
        <ele>952.73791503906</ele>
        <time>2018-04-29T13:05:19Z</time>
      </trkpt>
      <trkpt lat="48.03219" lon="6.95323">
        <ele>954.17712402344</ele>
        <time>2018-04-29T13:05:29Z</time>
      </trkpt>
      <trkpt lat="48.03232" lon="6.95334">
        <ele>955.20690917969</ele>
        <time>2018-04-29T13:05:34Z</time>
      </trkpt>
      <trkpt lat="48.0326" lon="6.95333">
        <ele>963.86456298828</ele>
        <time>2018-04-29T13:05:37Z</time>
      </trkpt>
      <trkpt lat="48.03281" lon="6.95343">
        <ele>965.08813476562</ele>
        <time>2018-04-29T13:05:42Z</time>
      </trkpt>
      <trkpt lat="48.0332" lon="6.95373">
        <ele>964.45111083984</ele>
        <time>2018-04-29T13:05:48Z</time>
      </trkpt>
      <trkpt lat="48.03352" lon="6.95411">
        <ele>969.68902587891</ele>
        <time>2018-04-29T13:05:57Z</time>
      </trkpt>
      <trkpt lat="48.0336" lon="6.95426">
        <ele>970.28704833984</ele>
        <time>2018-04-29T13:06:01Z</time>
      </trkpt>
      <trkpt lat="48.03375" lon="6.95442">
        <ele>976.31384277344</ele>
        <time>2018-04-29T13:06:05Z</time>
      </trkpt>
      <trkpt lat="48.03385" lon="6.95456">
        <ele>972.82043457031</ele>
        <time>2018-04-29T13:06:08Z</time>
      </trkpt>
      <trkpt lat="48.03405" lon="6.95492">
        <ele>976.38061523438</ele>
        <time>2018-04-29T13:06:11Z</time>
      </trkpt>
      <trkpt lat="48.03423" lon="6.95529">
        <ele>977.37585449219</ele>
        <time>2018-04-29T13:06:17Z</time>
      </trkpt>
      <trkpt lat="48.03431" lon="6.95558">
        <ele>977.8818359375</ele>
        <time>2018-04-29T13:06:23Z</time>
      </trkpt>
      <trkpt lat="48.03437" lon="6.95606">
        <ele>978.4482421875</ele>
        <time>2018-04-29T13:06:27Z</time>
      </trkpt>
      <trkpt lat="48.03449" lon="6.95704">
        <ele>984.87951660156</ele>
        <time>2018-04-29T13:06:28Z</time>
      </trkpt>
      <trkpt lat="48.03456" lon="6.95736">
        <ele>986.15576171875</ele>
        <time>2018-04-29T13:06:35Z</time>
      </trkpt>
      <trkpt lat="48.03475" lon="6.95776">
        <ele>990.02960205078</ele>
        <time>2018-04-29T13:06:37Z</time>
      </trkpt>
      <trkpt lat="48.03499" lon="6.95805">
        <ele>991.28802490234</ele>
        <time>2018-04-29T13:06:41Z</time>
      </trkpt>
      <trkpt lat="48.03527" lon="6.95828">
        <ele>994.70697021484</ele>
        <time>2018-04-29T13:06:51Z</time>
      </trkpt>
      <trkpt lat="48.03552" lon="6.95844">
        <ele>999.23876953125</ele>
        <time>2018-04-29T13:06:57Z</time>
      </trkpt>
      <trkpt lat="48.03569" lon="6.95862">
        <ele>998.83123779297</ele>
        <time>2018-04-29T13:07:01Z</time>
      </trkpt>
      <trkpt lat="48.03575" lon="6.95866">
        <ele>998.58599853516</ele>
        <time>2018-04-29T13:07:04Z</time>
      </trkpt>
      <trkpt lat="48.03583" lon="6.95868">
        <ele>999.25775146484</ele>
        <time>2018-04-29T13:07:08Z</time>
      </trkpt>
      <trkpt lat="48.0362" lon="6.95872">
        <ele>1000.9911499023</ele>
        <time>2018-04-29T13:07:10Z</time>
      </trkpt>
      <trkpt lat="48.03625" lon="6.95874">
        <ele>1002.7017822266</ele>
        <time>2018-04-29T13:07:10Z</time>
      </trkpt>
      <trkpt lat="48.0363" lon="6.95881">
        <ele>1004.3158569336</ele>
        <time>2018-04-29T13:07:20Z</time>
      </trkpt>
      <trkpt lat="48.03631" lon="6.95885">
        <ele>1003.9087524414</ele>
        <time>2018-04-29T13:07:23Z</time>
      </trkpt>
      <trkpt lat="48.03631" lon="6.95885">
        <ele>1003.9087524414</ele>
        <time>2018-04-29T13:07:29Z</time>
      </trkpt>
      <trkpt lat="48.03639" lon="6.95926">
        <ele>1004.1105957031</ele>
        <time>2018-04-29T13:07:37Z</time>
      </trkpt>
      <trkpt lat="48.03655" lon="6.95975">
        <ele>1006.5897827148</ele>
        <time>2018-04-29T13:07:47Z</time>
      </trkpt>
      <trkpt lat="48.03661" lon="6.95993">
        <ele>1006.1444091797</ele>
        <time>2018-04-29T13:07:51Z</time>
      </trkpt>
      <trkpt lat="48.03662" lon="6.96008">
        <ele>1004.8162231445</ele>
        <time>2018-04-29T13:07:59Z</time>
      </trkpt>
      <trkpt lat="48.03666" lon="6.96045">
        <ele>1000.381652832</ele>
        <time>2018-04-29T13:08:01Z</time>
      </trkpt>
      <trkpt lat="48.03676" lon="6.96067">
        <ele>1000.6948852539</ele>
        <time>2018-04-29T13:08:04Z</time>
      </trkpt>
      <trkpt lat="48.0369" lon="6.96087">
        <ele>1003.0017700195</ele>
        <time>2018-04-29T13:08:06Z</time>
      </trkpt>
      <trkpt lat="48.03765" lon="6.96159">
        <ele>1023.1128540039</ele>
        <time>2018-04-29T13:08:11Z</time>
      </trkpt>
      <trkpt lat="48.03857" lon="6.96243">
        <ele>1035.8470458984</ele>
        <time>2018-04-29T13:08:17Z</time>
      </trkpt>
      <trkpt lat="48.03875" lon="6.96259">
        <ele>1030.4411621094</ele>
        <time>2018-04-29T13:08:20Z</time>
      </trkpt>
      <trkpt lat="48.03875" lon="6.96265">
        <ele>1029.2003173828</ele>
        <time>2018-04-29T13:08:23Z</time>
      </trkpt>
      <trkpt lat="48.03884" lon="6.96282">
        <ele>1028.6353759766</ele>
        <time>2018-04-29T13:08:27Z</time>
      </trkpt>
      <trkpt lat="48.03923" lon="6.96328">
        <ele>1036.4265136719</ele>
        <time>2018-04-29T13:08:31Z</time>
      </trkpt>
      <trkpt lat="48.03957" lon="6.9638">
        <ele>1031.3369140625</ele>
        <time>2018-04-29T13:08:35Z</time>
      </trkpt>
      <trkpt lat="48.03993" lon="6.96427">
        <ele>1021.9719848633</ele>
        <time>2018-04-29T13:08:42Z</time>
      </trkpt>
      <trkpt lat="48.04013" lon="6.96463">
        <ele>1014.4036254883</ele>
        <time>2018-04-29T13:08:46Z</time>
      </trkpt>
      <trkpt lat="48.04032" lon="6.96513">
        <ele>1008.8717041016</ele>
        <time>2018-04-29T13:08:53Z</time>
      </trkpt>
      <trkpt lat="48.04036" lon="6.96548">
        <ele>999.3349609375</ele>
        <time>2018-04-29T13:09:08Z</time>
      </trkpt>
      <trkpt lat="48.04028" lon="6.96578">
        <ele>996.61413574219</ele>
        <time>2018-04-29T13:09:36Z</time>
      </trkpt>
      <trkpt lat="48.04021" lon="6.96608">
        <ele>994.22943115234</ele>
        <time>2018-04-29T13:09:47Z</time>
      </trkpt>
      <trkpt lat="48.0402" lon="6.96635">
        <ele>991.16094970703</ele>
        <time>2018-04-29T13:09:47Z</time>
      </trkpt>
      <trkpt lat="48.04019" lon="6.96661">
        <ele>990.22662353516</ele>
        <time>2018-04-29T13:09:58Z</time>
      </trkpt>
      <trkpt lat="48.04008" lon="6.96691">
        <ele>991.68542480469</ele>
        <time>2018-04-29T13:10:02Z</time>
      </trkpt>
      <trkpt lat="48.04004" lon="6.96732">
        <ele>991.95458984375</ele>
        <time>2018-04-29T13:10:10Z</time>
      </trkpt>
      <trkpt lat="48.03998" lon="6.9675">
        <ele>987.9482421875</ele>
        <time>2018-04-29T13:10:12Z</time>
      </trkpt>
      <trkpt lat="48.03978" lon="6.96789">
        <ele>982.27496337891</ele>
        <time>2018-04-29T13:10:15Z</time>
      </trkpt>
      <trkpt lat="48.03954" lon="6.96822">
        <ele>978.02227783203</ele>
        <time>2018-04-29T13:10:22Z</time>
      </trkpt>
      <trkpt lat="48.03945" lon="6.96844">
        <ele>975.02221679688</ele>
        <time>2018-04-29T13:10:35Z</time>
      </trkpt>
      <trkpt lat="48.03939" lon="6.96873">
        <ele>973.5634765625</ele>
        <time>2018-04-29T13:10:37Z</time>
      </trkpt>
      <trkpt lat="48.03939" lon="6.96931">
        <ele>970.66821289062</ele>
        <time>2018-04-29T13:10:37Z</time>
      </trkpt>
      <trkpt lat="48.03936" lon="6.96974">
        <ele>967.25366210938</ele>
        <time>2018-04-29T13:10:46Z</time>
      </trkpt>
      <trkpt lat="48.03938" lon="6.97001">
        <ele>964.50238037109</ele>
        <time>2018-04-29T13:10:52Z</time>
      </trkpt>
      <trkpt lat="48.03935" lon="6.9701">
        <ele>963.15319824219</ele>
        <time>2018-04-29T13:10:58Z</time>
      </trkpt>
      <trkpt lat="48.03928" lon="6.97012">
        <ele>960.28076171875</ele>
        <time>2018-04-29T13:11:07Z</time>
      </trkpt>
      <trkpt lat="48.03923" lon="6.97009">
        <ele>958.63238525391</ele>
        <time>2018-04-29T13:11:16Z</time>
      </trkpt>
      <trkpt lat="48.03904" lon="6.96961">
        <ele>956.99182128906</ele>
        <time>2018-04-29T13:11:25Z</time>
      </trkpt>
      <trkpt lat="48.03878" lon="6.96869">
        <ele>952.04693603516</ele>
        <time>2018-04-29T13:11:29Z</time>
      </trkpt>
      <trkpt lat="48.03867" lon="6.96828">
        <ele>948.21069335938</ele>
        <time>2018-04-29T13:11:29Z</time>
      </trkpt>
      <trkpt lat="48.03872" lon="6.96784">
        <ele>943.314453125</ele>
        <time>2018-04-29T13:11:30Z</time>
      </trkpt>
      <trkpt lat="48.03875" lon="6.96769">
        <ele>941.74090576172</ele>
        <time>2018-04-29T13:11:34Z</time>
      </trkpt>
      <trkpt lat="48.03871" lon="6.96768">
        <ele>941.67950439453</ele>
        <time>2018-04-29T13:11:52Z</time>
      </trkpt>
      <trkpt lat="48.03863" lon="6.96769">
        <ele>941.01733398438</ele>
        <time>2018-04-29T13:11:58Z</time>
      </trkpt>
      <trkpt lat="48.03848" lon="6.96776">
        <ele>939.93084716797</ele>
        <time>2018-04-29T13:12:06Z</time>
      </trkpt>
      <trkpt lat="48.03836" lon="6.96786">
        <ele>937.51153564453</ele>
        <time>2018-04-29T13:12:15Z</time>
      </trkpt>
      <trkpt lat="48.03833" lon="6.96792">
        <ele>936.771484375</ele>
        <time>2018-04-29T13:12:31Z</time>
      </trkpt>
      <trkpt lat="48.03821" lon="6.96852">
        <ele>933.39105224609</ele>
        <time>2018-04-29T13:13:14Z</time>
      </trkpt>
      <trkpt lat="48.03804" lon="6.96909">
        <ele>924.83416748047</ele>
        <time>2018-04-29T13:13:17Z</time>
      </trkpt>
      <trkpt lat="48.03799" lon="6.96929">
        <ele>922.09466552734</ele>
        <time>2018-04-29T13:13:17Z</time>
      </trkpt>
      <trkpt lat="48.03799" lon="6.96939">
        <ele>921.57379150391</ele>
        <time>2018-04-29T13:13:21Z</time>
      </trkpt>
      <trkpt lat="48.03811" lon="6.9698">
        <ele>922.77471923828</ele>
        <time>2018-04-29T13:13:33Z</time>
      </trkpt>
      <trkpt lat="48.03822" lon="6.97021">
        <ele>921.01995849609</ele>
        <time>2018-04-29T13:13:35Z</time>
      </trkpt>
      <trkpt lat="48.03823" lon="6.97033">
        <ele>919.55053710938</ele>
        <time>2018-04-29T13:13:42Z</time>
      </trkpt>
      <trkpt lat="48.03819" lon="6.97043">
        <ele>917.57171630859</ele>
        <time>2018-04-29T13:13:51Z</time>
      </trkpt>
      <trkpt lat="48.03815" lon="6.97044">
        <ele>916.37725830078</ele>
        <time>2018-04-29T13:13:52Z</time>
      </trkpt>
      <trkpt lat="48.03815" lon="6.97044">
        <ele>916.37725830078</ele>
        <time>2018-04-29T13:13:54Z</time>
      </trkpt>
      <trkpt lat="48.0381" lon="6.97041">
        <ele>915.27166748047</ele>
        <time>2018-04-29T13:14:00Z</time>
      </trkpt>
      <trkpt lat="48.03804" lon="6.97017">
        <ele>915.33734130859</ele>
        <time>2018-04-29T13:14:19Z</time>
      </trkpt>
      <trkpt lat="48.03788" lon="6.96976">
        <ele>914.55249023438</ele>
        <time>2018-04-29T13:14:34Z</time>
      </trkpt>
      <trkpt lat="48.03761" lon="6.96931">
        <ele>907.33099365234</ele>
        <time>2018-04-29T13:14:35Z</time>
      </trkpt>
      <trkpt lat="48.03751" lon="6.96911">
        <ele>905.05352783203</ele>
        <time>2018-04-29T13:14:38Z</time>
      </trkpt>
      <trkpt lat="48.03744" lon="6.96885">
        <ele>902.45831298828</ele>
        <time>2018-04-29T13:14:46Z</time>
      </trkpt>
      <trkpt lat="48.03725" lon="6.96834">
        <ele>897.48815917969</ele>
        <time>2018-04-29T13:14:57Z</time>
      </trkpt>
      <trkpt lat="48.03719" lon="6.96828">
        <ele>896.07281494141</ele>
        <time>2018-04-29T13:14:58Z</time>
      </trkpt>
      <trkpt lat="48.03715" lon="6.96827">
        <ele>895.40179443359</ele>
        <time>2018-04-29T13:15:08Z</time>
      </trkpt>
      <trkpt lat="48.03704" lon="6.9683">
        <ele>893.26080322266</ele>
        <time>2018-04-29T13:15:27Z</time>
      </trkpt>
      <trkpt lat="48.03692" lon="6.96851">
        <ele>892.04406738281</ele>
        <time>2018-04-29T13:15:36Z</time>
      </trkpt>
      <trkpt lat="48.03692" lon="6.96851">
        <ele>892.04406738281</ele>
        <time>2018-04-29T13:15:46Z</time>
      </trkpt>
      <trkpt lat="48.03688" lon="6.96857">
        <ele>892.37902832031</ele>
        <time>2018-04-29T13:15:46Z</time>
      </trkpt>
      <trkpt lat="48.03678" lon="6.96831">
        <ele>891.79406738281</ele>
        <time>2018-04-29T13:15:48Z</time>
      </trkpt>
      <trkpt lat="48.03664" lon="6.96789">
        <ele>891.08862304688</ele>
        <time>2018-04-29T13:15:51Z</time>
      </trkpt>
      <trkpt lat="48.03661" lon="6.96759">
        <ele>891.48406982422</ele>
        <time>2018-04-29T13:15:55Z</time>
      </trkpt>
      <trkpt lat="48.03662" lon="6.96726">
        <ele>890.67565917969</ele>
        <time>2018-04-29T13:16:01Z</time>
      </trkpt>
      <trkpt lat="48.03664" lon="6.96701">
        <ele>890.60443115234</ele>
        <time>2018-04-29T13:16:16Z</time>
      </trkpt>
      <trkpt lat="48.03658" lon="6.96689">
        <ele>889.96179199219</ele>
        <time>2018-04-29T13:16:35Z</time>
      </trkpt>
      <trkpt lat="48.03577" lon="6.96484">
        <ele>881.876953125</ele>
        <time>2018-04-29T13:16:46Z</time>
      </trkpt>
      <trkpt lat="48.03542" lon="6.96414">
        <ele>881.11437988281</ele>
        <time>2018-04-29T13:17:01Z</time>
      </trkpt>
      <trkpt lat="48.03524" lon="6.9637">
        <ele>883.20825195312</ele>
        <time>2018-04-29T13:17:09Z</time>
      </trkpt>
      <trkpt lat="48.03514" lon="6.96327">
        <ele>881.55743408203</ele>
        <time>2018-04-29T13:17:15Z</time>
      </trkpt>
      <trkpt lat="48.0351" lon="6.96296">
        <ele>885.94464111328</ele>
        <time>2018-04-29T13:17:19Z</time>
      </trkpt>
      <trkpt lat="48.03498" lon="6.96195">
        <ele>890.71624755859</ele>
        <time>2018-04-29T13:17:22Z</time>
      </trkpt>
      <trkpt lat="48.03495" lon="6.96174">
        <ele>892.966796875</ele>
        <time>2018-04-29T13:17:25Z</time>
      </trkpt>
      <trkpt lat="48.03486" lon="6.96172">
        <ele>891.50512695312</ele>
        <time>2018-04-29T13:17:28Z</time>
      </trkpt>
      <trkpt lat="48.03464" lon="6.96156">
        <ele>890.80975341797</ele>
        <time>2018-04-29T13:17:28Z</time>
      </trkpt>
      <trkpt lat="48.03431" lon="6.96118">
        <ele>889.94494628906</ele>
        <time>2018-04-29T13:17:30Z</time>
      </trkpt>
      <trkpt lat="48.0341" lon="6.96083">
        <ele>888.17565917969</ele>
        <time>2018-04-29T13:17:33Z</time>
      </trkpt>
      <trkpt lat="48.03396" lon="6.96046">
        <ele>887.34234619141</ele>
        <time>2018-04-29T13:17:37Z</time>
      </trkpt>
      <trkpt lat="48.03383" lon="6.96027">
        <ele>886.76013183594</ele>
        <time>2018-04-29T13:17:40Z</time>
      </trkpt>
      <trkpt lat="48.03364" lon="6.96011">
        <ele>886.55969238281</ele>
        <time>2018-04-29T13:17:46Z</time>
      </trkpt>
      <trkpt lat="48.03338" lon="6.95996">
        <ele>884.11724853516</ele>
        <time>2018-04-29T13:17:46Z</time>
      </trkpt>
      <trkpt lat="48.03318" lon="6.95978">
        <ele>882.84307861328</ele>
        <time>2018-04-29T13:17:53Z</time>
      </trkpt>
      <trkpt lat="48.03296" lon="6.95953">
        <ele>881.12994384766</ele>
        <time>2018-04-29T13:18:00Z</time>
      </trkpt>
      <trkpt lat="48.03272" lon="6.95934">
        <ele>877.27551269531</ele>
        <time>2018-04-29T13:18:06Z</time>
      </trkpt>
      <trkpt lat="48.03258" lon="6.9593">
        <ele>877.03723144531</ele>
        <time>2018-04-29T13:18:09Z</time>
      </trkpt>
      <trkpt lat="48.03253" lon="6.95929">
        <ele>876.81030273438</ele>
        <time>2018-04-29T13:18:19Z</time>
      </trkpt>
      <trkpt lat="48.03228" lon="6.95935">
        <ele>876.59899902344</ele>
        <time>2018-04-29T13:18:25Z</time>
      </trkpt>
      <trkpt lat="48.03208" lon="6.9593">
        <ele>878.21331787109</ele>
        <time>2018-04-29T13:18:28Z</time>
      </trkpt>
      <trkpt lat="48.03131" lon="6.95891">
        <ele>877.38842773438</ele>
        <time>2018-04-29T13:18:31Z</time>
      </trkpt>
      <trkpt lat="48.03031" lon="6.95839">
        <ele>872.36834716797</ele>
        <time>2018-04-29T13:18:42Z</time>
      </trkpt>
      <trkpt lat="48.02977" lon="6.95814">
        <ele>872.49176025391</ele>
        <time>2018-04-29T13:18:51Z</time>
      </trkpt>
      <trkpt lat="48.02954" lon="6.958">
        <ele>870.68304443359</ele>
        <time>2018-04-29T13:18:54Z</time>
      </trkpt>
      <trkpt lat="48.02941" lon="6.95796">
        <ele>870.71026611328</ele>
        <time>2018-04-29T13:18:54Z</time>
      </trkpt>
      <trkpt lat="48.02915" lon="6.95801">
        <ele>862.51104736328</ele>
        <time>2018-04-29T13:19:04Z</time>
      </trkpt>
      <trkpt lat="48.02899" lon="6.95799">
        <ele>859.30004882812</ele>
        <time>2018-04-29T13:19:09Z</time>
      </trkpt>
      <trkpt lat="48.02885" lon="6.95791">
        <ele>862.69012451172</ele>
        <time>2018-04-29T13:19:12Z</time>
      </trkpt>
      <trkpt lat="48.0286" lon="6.95772">
        <ele>866.73876953125</ele>
        <time>2018-04-29T13:19:17Z</time>
      </trkpt>
      <trkpt lat="48.0285" lon="6.95768">
        <ele>866.48034667969</ele>
        <time>2018-04-29T13:19:23Z</time>
      </trkpt>
      <trkpt lat="48.02827" lon="6.95768">
        <ele>863.04742431641</ele>
        <time>2018-04-29T13:19:32Z</time>
      </trkpt>
      <trkpt lat="48.0281" lon="6.95763">
        <ele>861.45294189453</ele>
        <time>2018-04-29T13:19:36Z</time>
      </trkpt>
      <trkpt lat="48.02802" lon="6.95756">
        <ele>860.89184570312</ele>
        <time>2018-04-29T13:19:40Z</time>
      </trkpt>
      <trkpt lat="48.02792" lon="6.95748">
        <ele>859.87164306641</ele>
        <time>2018-04-29T13:19:43Z</time>
      </trkpt>
      <trkpt lat="48.02786" lon="6.95746">
        <ele>858.91949462891</ele>
        <time>2018-04-29T13:19:46Z</time>
      </trkpt>
      <trkpt lat="48.02756" lon="6.95741">
        <ele>853.39404296875</ele>
        <time>2018-04-29T13:19:52Z</time>
      </trkpt>
      <trkpt lat="48.0274" lon="6.95741">
        <ele>850.29217529297</ele>
        <time>2018-04-29T13:19:58Z</time>
      </trkpt>
      <trkpt lat="48.02704" lon="6.95736">
        <ele>843.72375488281</ele>
        <time>2018-04-29T13:20:02Z</time>
      </trkpt>
      <trkpt lat="48.02673" lon="6.9573">
        <ele>837.92474365234</ele>
        <time>2018-04-29T13:20:03Z</time>
      </trkpt>
      <trkpt lat="48.02651" lon="6.9572">
        <ele>835.04028320312</ele>
        <time>2018-04-29T13:20:10Z</time>
      </trkpt>
      <trkpt lat="48.0264" lon="6.9571">
        <ele>834.0078125</ele>
        <time>2018-04-29T13:20:12Z</time>
      </trkpt>
      <trkpt lat="48.02624" lon="6.95671">
        <ele>833.46710205078</ele>
        <time>2018-04-29T13:20:16Z</time>
      </trkpt>
      <trkpt lat="48.02615" lon="6.95651">
        <ele>833.23406982422</ele>
        <time>2018-04-29T13:20:26Z</time>
      </trkpt>
      <trkpt lat="48.02602" lon="6.9564">
        <ele>831.87908935547</ele>
        <time>2018-04-29T13:20:32Z</time>
      </trkpt>
      <trkpt lat="48.02591" lon="6.95635">
        <ele>830.83026123047</ele>
        <time>2018-04-29T13:20:36Z</time>
      </trkpt>
      <trkpt lat="48.02579" lon="6.95625">
        <ele>829.81213378906</ele>
        <time>2018-04-29T13:20:39Z</time>
      </trkpt>
      <trkpt lat="48.02572" lon="6.95595">
        <ele>829.36206054688</ele>
        <time>2018-04-29T13:20:43Z</time>
      </trkpt>
      <trkpt lat="48.02564" lon="6.95541">
        <ele>828.68438720703</ele>
        <time>2018-04-29T13:20:45Z</time>
      </trkpt>
      <trkpt lat="48.02565" lon="6.95516">
        <ele>828.61029052734</ele>
        <time>2018-04-29T13:20:45Z</time>
      </trkpt>
      <trkpt lat="48.02569" lon="6.9551">
        <ele>828.89807128906</ele>
        <time>2018-04-29T13:20:55Z</time>
      </trkpt>
      <trkpt lat="48.02589" lon="6.95483">
        <ele>830.39874267578</ele>
        <time>2018-04-29T13:20:58Z</time>
      </trkpt>
      <trkpt lat="48.02589" lon="6.95478">
        <ele>830.31884765625</ele>
        <time>2018-04-29T13:21:04Z</time>
      </trkpt>
      <trkpt lat="48.02573" lon="6.95475">
        <ele>828.94738769531</ele>
        <time>2018-04-29T13:21:12Z</time>
      </trkpt>
      <trkpt lat="48.02555" lon="6.9546">
        <ele>826.60583496094</ele>
        <time>2018-04-29T13:21:22Z</time>
      </trkpt>
      <trkpt lat="48.02536" lon="6.9544">
        <ele>824.25476074219</ele>
        <time>2018-04-29T13:21:26Z</time>
      </trkpt>
      <trkpt lat="48.02525" lon="6.95433">
        <ele>824.01690673828</ele>
        <time>2018-04-29T13:21:34Z</time>
      </trkpt>
      <trkpt lat="48.02517" lon="6.95422">
        <ele>824.65643310547</ele>
        <time>2018-04-29T13:21:36Z</time>
      </trkpt>
      <trkpt lat="48.02506" lon="6.95411">
        <ele>823.98522949219</ele>
        <time>2018-04-29T13:21:39Z</time>
      </trkpt>
      <trkpt lat="48.02498" lon="6.95395">
        <ele>824.56750488281</ele>
        <time>2018-04-29T13:21:41Z</time>
      </trkpt>
      <trkpt lat="48.02478" lon="6.95352">
        <ele>819.72027587891</ele>
        <time>2018-04-29T13:21:46Z</time>
      </trkpt>
      <trkpt lat="48.02466" lon="6.95325">
        <ele>819.00659179688</ele>
        <time>2018-04-29T13:21:52Z</time>
      </trkpt>
      <trkpt lat="48.02454" lon="6.95304">
        <ele>817.82452392578</ele>
        <time>2018-04-29T13:21:55Z</time>
      </trkpt>
      <trkpt lat="48.02446" lon="6.95296">
        <ele>818.97534179688</ele>
        <time>2018-04-29T13:21:58Z</time>
      </trkpt>
      <trkpt lat="48.02435" lon="6.95293">
        <ele>820.10284423828</ele>
        <time>2018-04-29T13:22:02Z</time>
      </trkpt>
      <trkpt lat="48.02426" lon="6.95293">
        <ele>820.61639404297</ele>
        <time>2018-04-29T13:22:06Z</time>
      </trkpt>
      <trkpt lat="48.02384" lon="6.95297">
        <ele>816.47998046875</ele>
        <time>2018-04-29T13:22:10Z</time>
      </trkpt>
      <trkpt lat="48.02368" lon="6.95295">
        <ele>815.55975341797</ele>
        <time>2018-04-29T13:22:17Z</time>
      </trkpt>
      <trkpt lat="48.02343" lon="6.95288">
        <ele>814.04809570312</ele>
        <time>2018-04-29T13:22:21Z</time>
      </trkpt>
      <trkpt lat="48.02326" lon="6.95278">
        <ele>812.70379638672</ele>
        <time>2018-04-29T13:22:28Z</time>
      </trkpt>
      <trkpt lat="48.02297" lon="6.95265">
        <ele>809.30200195312</ele>
        <time>2018-04-29T13:22:43Z</time>
      </trkpt>
      <trkpt lat="48.02281" lon="6.95264">
        <ele>808.16522216797</ele>
        <time>2018-04-29T13:23:11Z</time>
      </trkpt>
      <trkpt lat="48.02276" lon="6.95261">
        <ele>808.38714599609</ele>
        <time>2018-04-29T13:23:22Z</time>
      </trkpt>
    </trkseg>
  </trk>
</gpx>